Time,TemperatureF,DewpointF,PressureIn,WindDirection,WindDirectionDegrees,WindSpeedMPH,WindSpeedGustMPH,Humidity,HourlyPrecipIn,Conditions,Clouds,dailyrainin,SoftwareType,DateUTC
2013-12-24 00:01:00,40.1,28.9,30.47,ENE,62,1.0,2.0,64,0.00,,,0.00,Wunderground v.1.15,2013-12-24 06:01:00,
2013-12-24 00:02:00,40.1,28.9,30.47,ENE,62,1.0,2.0,64,0.00,,,0.00,Wunderground v.1.15,2013-12-24 06:02:00,
2013-12-24 00:03:00,40.1,28.9,30.47,ENE,62,1.0,2.0,64,0.00,,,0.00,Wunderground v.1.15,2013-12-24 06:03:00,
2013-12-24 00:04:00,40.1,28.9,30.47,ENE,62,1.0,2.0,64,0.00,,,0.00,Wunderground v.1.15,2013-12-24 06:04:00,
2013-12-24 00:08:00,39.9,28.7,30.47,ENE,62,1.0,2.0,64,0.00,,,0.00,Wunderground v.1.15,2013-12-24 06:08:00,
2013-12-24 00:11:00,39.9,29.1,30.47,ENE,62,1.0,1.0,65,0.00,,,0.00,Wunderground v.1.15,2013-12-24 06:11:00,
2013-12-24 00:13:00,39.9,29.1,30.47,ENE,62,0.0,1.0,65,0.00,,,0.00,Wunderground v.1.15,2013-12-24 06:13:00,
2013-12-24 00:17:00,39.8,29.0,30.47,ENE,62,0.0,1.0,65,0.00,,,0.00,Wunderground v.1.15,2013-12-24 06:17:00,
2013-12-24 00:18:00,39.8,29.0,30.47,ENE,62,0.0,1.0,65,0.00,,,0.00,Wunderground v.1.15,2013-12-24 06:18:00,
2013-12-24 00:21:00,39.6,28.8,30.47,ENE,62,1.0,1.0,65,0.00,,,0.00,Wunderground v.1.15,2013-12-24 06:21:00,
2013-12-24 00:22:00,39.6,28.8,30.47,ENE,62,1.0,1.0,65,0.00,,,0.00,Wunderground v.1.15,2013-12-24 06:22:00,
2013-12-24 00:24:00,39.6,28.8,30.47,ENE,62,1.0,1.0,65,0.00,,,0.00,Wunderground v.1.15,2013-12-24 06:24:00,
2013-12-24 00:27:00,39.5,28.7,30.47,ENE,62,1.0,1.0,65,0.00,,,0.00,Wunderground v.1.15,2013-12-24 06:27:00,
2013-12-24 00:31:00,39.5,28.7,30.47,ENE,62,1.0,1.0,65,0.00,,,0.00,Wunderground v.1.15,2013-12-24 06:31:00,
2013-12-24 00:35:00,39.3,28.5,30.47,ENE,62,1.0,1.0,65,0.00,,,0.00,Wunderground v.1.15,2013-12-24 06:35:00,
2013-12-24 00:36:00,39.3,28.5,30.47,ENE,62,1.0,1.0,65,0.00,,,0.00,Wunderground v.1.15,2013-12-24 06:36:00,
2013-12-24 00:37:00,39.3,28.9,30.47,ENE,62,1.0,1.0,66,0.00,,,0.00,Wunderground v.1.15,2013-12-24 06:37:00,
2013-12-24 00:41:00,39.2,28.8,30.47,ENE,62,1.0,1.0,66,0.00,,,0.00,Wunderground v.1.15,2013-12-24 06:41:00,
2013-12-24 00:43:00,39.2,28.8,30.47,ENE,62,1.0,1.0,66,0.00,,,0.00,Wunderground v.1.15,2013-12-24 06:43:00,
2013-12-24 00:44:00,39.2,28.8,30.47,ENE,62,1.0,1.0,66,0.00,,,0.00,Wunderground v.1.15,2013-12-24 06:44:00,
2013-12-24 00:48:00,39.2,28.8,30.46,ENE,62,1.0,2.0,66,0.00,,,0.00,Wunderground v.1.15,2013-12-24 06:48:00,
2013-12-24 00:51:00,39.1,28.7,30.46,ENE,62,1.0,2.0,66,0.00,,,0.00,Wunderground v.1.15,2013-12-24 06:51:00,
2013-12-24 00:52:00,39.1,28.7,30.46,ENE,62,1.0,2.0,66,0.00,,,0.00,Wunderground v.1.15,2013-12-24 06:52:00,
2013-12-24 00:53:00,39.1,28.7,30.46,ENE,62,1.0,2.0,66,0.00,,,0.00,Wunderground v.1.15,2013-12-24 06:53:00,
2013-12-24 00:57:00,38.9,28.5,30.46,ENE,61,1.0,2.0,66,0.00,,,0.00,Wunderground v.1.15,2013-12-24 06:57:00,
2013-12-24 01:01:00,38.9,28.9,30.46,ENE,61,1.0,2.0,67,0.00,,,0.00,Wunderground v.1.15,2013-12-24 07:01:00,
2013-12-24 01:02:00,38.9,28.9,30.47,ENE,62,1.0,2.0,67,0.00,,,0.00,Wunderground v.1.15,2013-12-24 07:02:00,
2013-12-24 01:03:00,38.9,28.9,30.47,ENE,62,1.0,2.0,67,0.00,,,0.00,Wunderground v.1.15,2013-12-24 07:03:00,
2013-12-24 01:04:00,38.9,28.9,30.47,ENE,61,1.0,3.0,67,0.00,,,0.00,Wunderground v.1.15,2013-12-24 07:04:00,
2013-12-24 01:07:00,38.9,28.9,30.47,ENE,61,1.0,3.0,67,0.00,,,0.00,Wunderground v.1.15,2013-12-24 07:07:00,
2013-12-24 01:11:00,38.9,28.9,30.47,ENE,61,2.0,2.0,67,0.00,,,0.00,Wunderground v.1.15,2013-12-24 07:11:00,
2013-12-24 01:12:00,38.9,28.9,30.47,ENE,62,2.0,2.0,67,0.00,,,0.00,Wunderground v.1.15,2013-12-24 07:12:00,
2013-12-24 01:13:00,38.9,28.9,30.47,ENE,61,2.0,2.0,67,0.00,,,0.00,Wunderground v.1.15,2013-12-24 07:13:00,
2013-12-24 01:17:00,38.9,28.9,30.47,ENE,61,2.0,2.0,67,0.00,,,0.00,Wunderground v.1.15,2013-12-24 07:17:00,
2013-12-24 01:21:00,38.9,28.9,30.46,ENE,62,2.0,2.0,67,0.00,,,0.00,Wunderground v.1.15,2013-12-24 07:21:00,
2013-12-24 01:22:00,38.9,28.9,30.46,ENE,61,2.0,3.0,67,0.00,,,0.00,Wunderground v.1.15,2013-12-24 07:22:00,
2013-12-24 01:23:00,38.9,28.9,30.46,NE,54,2.0,3.0,67,0.00,,,0.00,Wunderground v.1.15,2013-12-24 07:23:00,
2013-12-24 01:24:00,38.9,28.9,30.46,NE,54,2.0,3.0,67,0.00,,,0.00,Wunderground v.1.15,2013-12-24 07:24:00,
2013-12-24 01:26:00,38.9,28.9,30.46,NE,54,2.0,3.0,67,0.00,,,0.00,Wunderground v.1.15,2013-12-24 07:26:00,
2013-12-24 01:31:00,38.9,28.9,30.46,NE,54,2.0,2.0,67,0.00,,,0.00,Wunderground v.1.15,2013-12-24 07:31:00,
2013-12-24 01:32:00,38.9,28.9,30.46,NE,54,2.0,3.0,67,0.00,,,0.00,Wunderground v.1.15,2013-12-24 07:32:00,
2013-12-24 01:36:00,38.9,28.9,30.46,NE,54,2.0,3.0,67,0.00,,,0.00,Wunderground v.1.15,2013-12-24 07:36:00,
2013-12-24 01:37:00,38.9,28.9,30.46,NE,54,2.0,3.0,67,0.00,,,0.00,Wunderground v.1.15,2013-12-24 07:37:00,
2013-12-24 01:41:00,38.8,28.8,30.46,NE,44,2.0,3.0,67,0.00,,,0.00,Wunderground v.1.15,2013-12-24 07:41:00,
2013-12-24 01:42:00,38.8,28.8,30.46,NE,44,2.0,3.0,67,0.00,,,0.00,Wunderground v.1.15,2013-12-24 07:42:00,
2013-12-24 01:43:00,38.8,28.8,30.46,NE,44,2.0,3.0,67,0.00,,,0.00,Wunderground v.1.15,2013-12-24 07:43:00,
2013-12-24 01:44:00,38.8,28.8,30.46,NE,44,2.0,3.0,67,0.00,,,0.00,Wunderground v.1.15,2013-12-24 07:44:00,
2013-12-24 01:45:00,38.8,28.8,30.46,NE,44,3.0,3.0,67,0.00,,,0.00,Wunderground v.1.15,2013-12-24 07:45:00,
2013-12-24 01:51:00,38.5,28.5,30.46,NE,44,2.0,3.0,67,0.00,,,0.00,Wunderground v.1.15,2013-12-24 07:51:00,
2013-12-24 01:52:00,38.5,28.5,30.46,NE,44,3.0,3.0,67,0.00,,,0.00,Wunderground v.1.15,2013-12-24 07:52:00,
2013-12-24 01:55:00,38.3,28.3,30.46,NE,44,3.0,3.0,67,0.00,,,0.00,Wunderground v.1.15,2013-12-24 07:55:00,
2013-12-24 01:56:00,38.2,28.2,30.46,NE,44,3.0,3.0,67,0.00,,,0.00,Wunderground v.1.15,2013-12-24 07:56:00,
2013-12-24 02:01:00,38.0,28.4,30.46,NE,44,2.0,5.0,68,0.00,,,0.00,Wunderground v.1.15,2013-12-24 08:01:00,
2013-12-24 02:02:00,38.0,28.4,30.45,NE,44,2.0,5.0,68,0.00,,,0.00,Wunderground v.1.15,2013-12-24 08:02:00,
2013-12-24 02:03:00,38.0,28.4,30.45,NE,44,2.0,5.0,68,0.00,,,0.00,Wunderground v.1.15,2013-12-24 08:03:00,
2013-12-24 02:04:00,38.0,28.4,30.45,NE,44,2.0,5.0,68,0.00,,,0.00,Wunderground v.1.15,2013-12-24 08:04:00,
2013-12-24 02:05:00,38.0,28.4,30.45,NE,44,3.0,5.0,68,0.00,,,0.00,Wunderground v.1.15,2013-12-24 08:05:00,
2013-12-24 02:10:00,38.0,28.4,30.45,NE,44,3.0,3.0,68,0.00,,,0.00,Wunderground v.1.15,2013-12-24 08:10:00,
2013-12-24 02:11:00,38.0,28.4,30.45,NE,44,2.0,3.0,68,0.00,,,0.00,Wunderground v.1.15,2013-12-24 08:11:00,
2013-12-24 02:12:00,38.0,28.4,30.45,NE,44,2.0,3.0,68,0.00,,,0.00,Wunderground v.1.15,2013-12-24 08:12:00,
2013-12-24 02:15:00,38.2,28.6,30.45,NE,44,2.0,3.0,68,0.00,,,0.00,Wunderground v.1.15,2013-12-24 08:15:00,
2013-12-24 02:16:00,38.2,28.6,30.45,NE,44,2.0,5.0,68,0.00,,,0.00,Wunderground v.1.15,2013-12-24 08:16:00,
2013-12-24 02:20:00,38.2,28.6,30.45,NE,44,3.0,3.0,68,0.00,,,0.00,Wunderground v.1.15,2013-12-24 08:20:00,
2013-12-24 02:21:00,38.2,28.6,30.45,NE,44,3.0,3.0,68,0.00,,,0.00,Wunderground v.1.15,2013-12-24 08:21:00,
2013-12-24 02:22:00,38.2,28.6,30.45,NE,44,3.0,3.0,68,0.00,,,0.00,Wunderground v.1.15,2013-12-24 08:22:00,
2013-12-24 02:23:00,38.2,28.6,30.45,NE,44,3.0,3.0,68,0.00,,,0.00,Wunderground v.1.15,2013-12-24 08:23:00,
2013-12-24 02:25:00,38.2,28.6,30.45,NE,44,3.0,5.0,68,0.00,,,0.00,Wunderground v.1.15,2013-12-24 08:25:00,
2013-12-24 02:27:00,38.2,28.6,30.45,NE,45,3.0,5.0,68,0.00,,,0.00,Wunderground v.1.15,2013-12-24 08:27:00,
2013-12-24 02:31:00,38.2,28.6,30.45,NE,45,3.0,3.0,68,0.00,,,0.00,Wunderground v.1.15,2013-12-24 08:31:00,
2013-12-24 02:33:00,38.2,28.6,30.45,NE,45,3.0,3.0,68,0.00,,,0.00,Wunderground v.1.15,2013-12-24 08:33:00,
2013-12-24 02:34:00,38.2,28.6,30.45,NE,45,3.0,3.0,68,0.00,,,0.00,Wunderground v.1.15,2013-12-24 08:34:00,
2013-12-24 02:40:00,38.0,28.4,30.45,NE,45,3.0,3.0,68,0.00,,,0.00,Wunderground v.1.15,2013-12-24 08:40:00,
2013-12-24 02:42:00,38.0,28.4,30.45,NE,45,2.0,3.0,68,0.00,,,0.00,Wunderground v.1.15,2013-12-24 08:42:00,
2013-12-24 02:43:00,38.0,28.4,30.45,NE,45,2.0,3.0,68,0.00,,,0.00,Wunderground v.1.15,2013-12-24 08:43:00,
2013-12-24 02:45:00,38.0,28.4,30.45,NE,45,2.0,4.0,68,0.00,,,0.00,Wunderground v.1.15,2013-12-24 08:45:00,
2013-12-24 02:47:00,38.0,28.4,30.45,NE,45,2.0,4.0,68,0.00,,,0.00,Wunderground v.1.15,2013-12-24 08:47:00,
2013-12-24 02:51:00,37.9,28.3,30.45,NE,45,2.0,2.0,68,0.00,,,0.00,Wunderground v.1.15,2013-12-24 08:51:00,
2013-12-24 02:52:00,37.9,28.3,30.45,NE,45,2.0,3.0,68,0.00,,,0.00,Wunderground v.1.15,2013-12-24 08:52:00,
2013-12-24 02:53:00,37.8,28.2,30.45,NE,45,2.0,3.0,68,0.00,,,0.00,Wunderground v.1.15,2013-12-24 08:53:00,
2013-12-24 02:54:00,37.8,28.2,30.45,NE,45,3.0,3.0,68,0.00,,,0.00,Wunderground v.1.15,2013-12-24 08:54:00,
2013-12-24 02:55:00,37.8,28.5,30.45,NE,45,2.0,3.0,69,0.00,,,0.00,Wunderground v.1.15,2013-12-24 08:55:00,
2013-12-24 02:57:00,37.8,28.5,30.45,NE,45,2.0,3.0,69,0.00,,,0.00,Wunderground v.1.15,2013-12-24 08:57:00,
2013-12-24 03:00:00,37.8,28.5,30.45,NE,45,2.0,3.0,69,0.00,,,0.00,Wunderground v.1.15,2013-12-24 09:00:00,
2013-12-24 03:01:00,37.8,28.5,30.45,NE,45,2.0,3.0,69,0.00,,,0.00,Wunderground v.1.15,2013-12-24 09:01:00,
2013-12-24 03:03:00,37.8,28.2,30.44,NE,45,2.0,3.0,68,0.00,,,0.00,Wunderground v.1.15,2013-12-24 09:03:00,
2013-12-24 03:06:00,37.8,28.2,30.44,NE,45,2.0,3.0,68,0.00,,,0.00,Wunderground v.1.15,2013-12-24 09:06:00,
2013-12-24 03:07:00,37.8,28.2,30.44,NE,45,2.0,3.0,68,0.00,,,0.00,Wunderground v.1.15,2013-12-24 09:07:00,
2013-12-24 03:10:00,37.8,28.2,30.44,NE,45,2.0,2.0,68,0.00,,,0.00,Wunderground v.1.15,2013-12-24 09:10:00,
2013-12-24 03:11:00,37.8,28.2,30.44,NE,45,2.0,2.0,68,0.00,,,0.00,Wunderground v.1.15,2013-12-24 09:11:00,
2013-12-24 03:12:00,37.8,28.5,30.44,NE,45,2.0,2.0,69,0.00,,,0.00,Wunderground v.1.15,2013-12-24 09:12:00,
2013-12-24 03:14:00,37.8,28.5,30.44,NE,45,2.0,2.0,69,0.00,,,0.00,Wunderground v.1.15,2013-12-24 09:14:00,
2013-12-24 03:16:00,37.8,28.5,30.44,NE,45,2.0,2.0,69,0.00,,,0.00,Wunderground v.1.15,2013-12-24 09:16:00,
2013-12-24 03:20:00,37.8,28.5,30.44,NE,45,2.0,3.0,69,0.00,,,0.00,Wunderground v.1.15,2013-12-24 09:20:00,
2013-12-24 03:21:00,37.8,28.5,30.44,NE,45,2.0,3.0,69,0.00,,,0.00,Wunderground v.1.15,2013-12-24 09:21:00,
2013-12-24 03:24:00,37.8,28.2,30.44,NE,45,2.0,3.0,68,0.00,,,0.00,Wunderground v.1.15,2013-12-24 09:24:00,
2013-12-24 03:26:00,37.8,28.2,30.44,NE,45,2.0,3.0,68,0.00,,,0.00,Wunderground v.1.15,2013-12-24 09:26:00,
2013-12-24 03:27:00,37.8,28.2,30.44,NE,45,2.0,3.0,68,0.00,,,0.00,Wunderground v.1.15,2013-12-24 09:27:00,
2013-12-24 03:30:00,37.8,28.2,30.44,NE,45,2.0,2.0,68,0.00,,,0.00,Wunderground v.1.15,2013-12-24 09:30:00,
2013-12-24 03:31:00,37.8,28.2,30.44,NE,45,2.0,2.0,68,0.00,,,0.00,Wunderground v.1.15,2013-12-24 09:31:00,
2013-12-24 03:32:00,37.8,28.2,30.44,NE,45,2.0,2.0,68,0.00,,,0.00,Wunderground v.1.15,2013-12-24 09:32:00,
2013-12-24 03:35:00,37.8,28.2,30.44,NE,45,2.0,2.0,68,0.00,,,0.00,Wunderground v.1.15,2013-12-24 09:35:00,
2013-12-24 03:36:00,37.8,28.2,30.44,NE,45,2.0,3.0,68,0.00,,,0.00,Wunderground v.1.15,2013-12-24 09:36:00,
2013-12-24 03:37:00,37.8,28.2,30.44,NE,45,2.0,3.0,68,0.00,,,0.00,Wunderground v.1.15,2013-12-24 09:37:00,
2013-12-24 03:41:00,37.8,28.2,30.44,NE,45,2.0,2.0,68,0.00,,,0.00,Wunderground v.1.15,2013-12-24 09:41:00,
2013-12-24 03:42:00,37.8,28.2,30.44,NE,45,2.0,2.0,68,0.00,,,0.00,Wunderground v.1.15,2013-12-24 09:42:00,
2013-12-24 03:43:00,37.8,28.2,30.44,NE,45,2.0,2.0,68,0.00,,,0.00,Wunderground v.1.15,2013-12-24 09:43:00,
2013-12-24 03:44:00,37.8,28.2,30.44,NE,45,2.0,2.0,68,0.00,,,0.00,Wunderground v.1.15,2013-12-24 09:44:00,
2013-12-24 03:45:00,37.8,28.2,30.44,NE,45,2.0,2.0,68,0.00,,,0.00,Wunderground v.1.15,2013-12-24 09:45:00,
2013-12-24 03:47:00,37.8,28.2,30.44,NE,45,2.0,3.0,68,0.00,,,0.00,Wunderground v.1.15,2013-12-24 09:47:00,
2013-12-24 03:50:00,37.8,28.2,30.44,NE,45,2.0,2.0,68,0.00,,,0.00,Wunderground v.1.15,2013-12-24 09:50:00,
2013-12-24 03:51:00,37.8,28.2,30.44,NE,45,2.0,3.0,68,0.00,,,0.00,Wunderground v.1.15,2013-12-24 09:51:00,
2013-12-24 03:52:00,37.6,28.0,30.44,NE,45,3.0,3.0,68,0.00,,,0.00,Wunderground v.1.15,2013-12-24 09:52:00,
2013-12-24 03:56:00,37.6,28.0,30.44,NE,45,2.0,3.0,68,0.00,,,0.00,Wunderground v.1.15,2013-12-24 09:56:00,
2013-12-24 03:57:00,37.5,27.9,30.44,NE,45,2.0,3.0,68,0.00,,,0.00,Wunderground v.1.15,2013-12-24 09:57:00,
2013-12-24 04:00:00,37.3,28.1,30.44,NE,45,2.0,2.0,69,0.00,,,0.00,Wunderground v.1.15,2013-12-24 10:00:00,
2013-12-24 04:01:00,37.3,28.1,30.44,NE,45,2.0,2.0,69,0.00,,,0.00,Wunderground v.1.15,2013-12-24 10:01:00,
2013-12-24 04:02:00,37.3,28.1,30.44,NE,45,2.0,3.0,69,0.00,,,0.00,Wunderground v.1.15,2013-12-24 10:02:00,
2013-12-24 04:03:00,37.2,28.0,30.44,NE,45,2.0,3.0,69,0.00,,,0.00,Wunderground v.1.15,2013-12-24 10:03:00,
2013-12-24 04:06:00,37.0,27.8,30.44,NE,45,2.0,3.0,69,0.00,,,0.00,Wunderground v.1.15,2013-12-24 10:06:00,
2013-12-24 04:07:00,37.0,27.8,30.44,NE,45,2.0,3.0,69,0.00,,,0.00,Wunderground v.1.15,2013-12-24 10:07:00,
2013-12-24 04:10:00,37.0,27.8,30.44,NE,45,2.0,2.0,69,0.00,,,0.00,Wunderground v.1.15,2013-12-24 10:10:00,
2013-12-24 04:12:00,37.0,27.8,30.44,NE,45,2.0,2.0,69,0.00,,,0.00,Wunderground v.1.15,2013-12-24 10:12:00,
2013-12-24 04:15:00,37.0,27.8,30.44,NE,45,2.0,3.0,69,0.00,,,0.00,Wunderground v.1.15,2013-12-24 10:15:00,
2013-12-24 04:16:00,37.0,28.1,30.44,NE,45,2.0,3.0,70,0.00,,,0.00,Wunderground v.1.15,2013-12-24 10:16:00,
2013-12-24 04:20:00,37.0,28.1,30.44,NE,45,2.0,3.0,70,0.00,,,0.00,Wunderground v.1.15,2013-12-24 10:20:00,
2013-12-24 04:21:00,37.0,28.1,30.44,NE,45,2.0,3.0,70,0.00,,,0.00,Wunderground v.1.15,2013-12-24 10:21:00,
2013-12-24 04:25:00,36.9,28.0,30.44,NE,45,2.0,3.0,70,0.00,,,0.00,Wunderground v.1.15,2013-12-24 10:25:00,
2013-12-24 04:26:00,36.9,28.0,30.44,NE,45,2.0,3.0,70,0.00,,,0.00,Wunderground v.1.15,2013-12-24 10:26:00,
2013-12-24 04:30:00,37.2,28.3,30.44,NE,45,2.0,2.0,70,0.00,,,0.00,Wunderground v.1.15,2013-12-24 10:30:00,
2013-12-24 04:31:00,37.2,28.3,30.44,NE,45,2.0,5.0,70,0.00,,,0.00,Wunderground v.1.15,2013-12-24 10:31:00,
2013-12-24 04:36:00,37.2,28.0,30.43,NE,45,2.0,5.0,69,0.00,,,0.00,Wunderground v.1.15,2013-12-24 10:36:00,
2013-12-24 04:37:00,37.2,28.0,30.43,NE,45,2.0,5.0,69,0.00,,,0.00,Wunderground v.1.15,2013-12-24 10:37:00,
2013-12-24 04:40:00,37.2,28.0,30.43,NE,45,2.0,2.0,69,0.00,,,0.00,Wunderground v.1.15,2013-12-24 10:40:00,
2013-12-24 04:41:00,37.2,28.0,30.43,NE,45,2.0,2.0,69,0.00,,,0.00,Wunderground v.1.15,2013-12-24 10:41:00,
2013-12-24 04:43:00,37.0,27.8,30.43,NE,45,1.0,2.0,69,0.00,,,0.00,Wunderground v.1.15,2013-12-24 10:43:00,
2013-12-24 04:44:00,37.0,28.1,30.43,NE,45,1.0,2.0,70,0.00,,,0.00,Wunderground v.1.15,2013-12-24 10:44:00,
2013-12-24 04:47:00,36.9,28.0,30.43,NE,45,1.0,2.0,70,0.00,,,0.00,Wunderground v.1.15,2013-12-24 10:47:00,
2013-12-24 04:50:00,36.9,28.0,30.43,NE,45,0.0,2.0,70,0.00,,,0.00,Wunderground v.1.15,2013-12-24 10:50:00,
2013-12-24 04:52:00,36.8,27.9,30.43,NE,45,0.0,0.0,70,0.00,,,0.00,Wunderground v.1.15,2013-12-24 10:52:00,
2013-12-24 04:53:00,36.8,27.9,30.43,NE,45,0.0,0.0,70,0.00,,,0.00,Wunderground v.1.15,2013-12-24 10:53:00,
2013-12-24 04:57:00,36.6,28.1,30.43,NE,45,0.0,2.0,71,0.00,,,0.00,Wunderground v.1.15,2013-12-24 10:57:00,
2013-12-24 04:58:00,36.6,28.1,30.43,NE,45,0.0,2.0,71,0.00,,,0.00,Wunderground v.1.15,2013-12-24 10:58:00,
2013-12-24 05:02:00,36.5,28.0,30.43,NE,45,0.0,0.0,71,0.00,,,0.00,Wunderground v.1.15,2013-12-24 11:02:00,
2013-12-24 05:03:00,36.5,28.0,30.43,NE,45,1.0,1.0,71,0.00,,,0.00,Wunderground v.1.15,2013-12-24 11:03:00,
2013-12-24 05:04:00,36.5,28.0,30.43,NE,45,1.0,1.0,71,0.00,,,0.00,Wunderground v.1.15,2013-12-24 11:04:00,
2013-12-24 05:05:00,36.5,28.0,30.43,NE,45,1.0,1.0,71,0.00,,,0.00,Wunderground v.1.15,2013-12-24 11:05:00,
2013-12-24 05:11:00,36.6,28.1,30.43,NE,45,1.0,3.0,71,0.00,,,0.00,Wunderground v.1.15,2013-12-24 11:11:00,
2013-12-24 05:13:00,36.6,28.1,30.43,NE,45,1.0,3.0,71,0.00,,,0.00,Wunderground v.1.15,2013-12-24 11:13:00,
2013-12-24 05:14:00,36.6,28.1,30.43,NE,45,1.0,3.0,71,0.00,,,0.00,Wunderground v.1.15,2013-12-24 11:14:00,
2013-12-24 05:17:00,36.6,28.1,30.43,NE,45,2.0,3.0,71,0.00,,,0.00,Wunderground v.1.15,2013-12-24 11:17:00,
2013-12-24 05:21:00,36.5,28.0,30.43,NE,45,2.0,3.0,71,0.00,,,0.00,Wunderground v.1.15,2013-12-24 11:21:00,
2013-12-24 05:22:00,36.5,28.0,30.43,NE,45,2.0,3.0,71,0.00,,,0.00,Wunderground v.1.15,2013-12-24 11:22:00,
2013-12-24 05:23:00,36.3,27.8,30.43,NE,45,2.0,3.0,71,0.00,,,0.00,Wunderground v.1.15,2013-12-24 11:23:00,
2013-12-24 05:24:00,36.3,27.8,30.43,NE,45,2.0,3.0,71,0.00,,,0.00,Wunderground v.1.15,2013-12-24 11:24:00,
2013-12-24 05:25:00,36.2,27.7,30.43,NE,45,2.0,3.0,71,0.00,,,0.00,Wunderground v.1.15,2013-12-24 11:25:00,
2013-12-24 05:26:00,36.2,27.7,30.43,NE,45,2.0,3.0,71,0.00,,,0.00,Wunderground v.1.15,2013-12-24 11:26:00,
2013-12-24 05:28:00,36.2,27.7,30.43,NE,45,2.0,3.0,71,0.00,,,0.00,Wunderground v.1.15,2013-12-24 11:28:00,
2013-12-24 05:32:00,36.0,27.8,30.43,NE,45,2.0,2.0,72,0.00,,,0.00,Wunderground v.1.15,2013-12-24 11:32:00,
2013-12-24 05:33:00,36.0,27.8,30.43,NE,45,2.0,2.0,72,0.00,,,0.00,Wunderground v.1.15,2013-12-24 11:33:00,
2013-12-24 05:34:00,36.0,27.8,30.43,NE,45,2.0,2.0,72,0.00,,,0.00,Wunderground v.1.15,2013-12-24 11:34:00,
2013-12-24 05:38:00,36.0,27.8,30.43,NE,45,2.0,2.0,72,0.00,,,0.00,Wunderground v.1.15,2013-12-24 11:38:00,
2013-12-24 05:42:00,35.9,27.7,30.43,NE,45,1.0,1.0,72,0.00,,,0.00,Wunderground v.1.15,2013-12-24 11:42:00,
2013-12-24 05:43:00,35.9,27.7,30.43,NE,45,1.0,1.0,72,0.00,,,0.00,Wunderground v.1.15,2013-12-24 11:43:00,
2013-12-24 05:44:00,35.9,27.7,30.43,NE,45,1.0,1.0,72,0.00,,,0.00,Wunderground v.1.15,2013-12-24 11:44:00,
2013-12-24 05:47:00,35.9,27.7,30.43,NE,45,1.0,2.0,72,0.00,,,0.00,Wunderground v.1.15,2013-12-24 11:47:00,
2013-12-24 05:48:00,35.9,27.7,30.43,NE,45,1.0,2.0,72,0.00,,,0.00,Wunderground v.1.15,2013-12-24 11:48:00,
2013-12-24 05:51:00,36.0,27.8,30.43,NE,45,1.0,3.0,72,0.00,,,0.00,Wunderground v.1.15,2013-12-24 11:51:00,
2013-12-24 05:52:00,36.0,27.8,30.43,NE,45,1.0,3.0,72,0.00,,,0.00,Wunderground v.1.15,2013-12-24 11:52:00,
2013-12-24 05:54:00,36.0,27.8,30.43,NE,45,1.0,3.0,72,0.00,,,0.00,Wunderground v.1.15,2013-12-24 11:54:00,
2013-12-24 05:58:00,35.9,27.7,30.43,NE,45,2.0,3.0,72,0.00,,,0.00,Wunderground v.1.15,2013-12-24 11:58:00,
2013-12-24 06:03:00,35.8,27.7,30.43,NE,45,1.0,1.0,72,0.00,,,0.00,Wunderground v.1.15,2013-12-24 12:03:00,
2013-12-24 06:05:00,35.8,27.7,30.43,NE,45,1.0,1.0,72,0.00,,,0.00,Wunderground v.1.15,2013-12-24 12:05:00,
2013-12-24 06:06:00,35.8,27.7,30.43,NE,45,1.0,2.0,72,0.00,,,0.00,Wunderground v.1.15,2013-12-24 12:06:00,
2013-12-24 06:11:00,35.9,27.7,30.43,NE,45,1.0,1.0,72,0.00,,,0.00,Wunderground v.1.15,2013-12-24 12:11:00,
2013-12-24 06:12:00,35.9,27.7,30.43,NE,45,1.0,2.0,72,0.00,,,0.00,Wunderground v.1.15,2013-12-24 12:12:00,
2013-12-24 06:14:00,35.9,27.7,30.43,NE,45,1.0,2.0,72,0.00,,,0.00,Wunderground v.1.15,2013-12-24 12:14:00,
2013-12-24 06:17:00,35.9,27.7,30.43,NE,45,2.0,3.0,72,0.00,,,0.00,Wunderground v.1.15,2013-12-24 12:17:00,
2013-12-24 06:18:00,35.9,27.7,30.44,NE,45,2.0,3.0,72,0.00,,,0.00,Wunderground v.1.15,2013-12-24 12:18:00,
2013-12-24 06:21:00,35.9,27.7,30.44,NE,45,2.0,2.0,72,0.00,,,0.00,Wunderground v.1.15,2013-12-24 12:21:00,
2013-12-24 06:22:00,35.9,27.7,30.44,NE,45,2.0,2.0,72,0.00,,,0.00,Wunderground v.1.15,2013-12-24 12:22:00,
2013-12-24 06:23:00,35.9,27.7,30.44,NE,45,2.0,2.0,72,0.00,,,0.00,Wunderground v.1.15,2013-12-24 12:23:00,
2013-12-24 06:24:00,35.9,27.7,30.44,NE,45,2.0,2.0,72,0.00,,,0.00,Wunderground v.1.15,2013-12-24 12:24:00,
2013-12-24 06:26:00,35.8,27.7,30.44,NE,45,1.0,2.0,72,0.00,,,0.00,Wunderground v.1.15,2013-12-24 12:26:00,
2013-12-24 06:27:00,35.8,27.7,30.44,NE,45,1.0,2.0,72,0.00,,,0.00,Wunderground v.1.15,2013-12-24 12:27:00,
2013-12-24 06:31:00,35.8,27.7,30.44,NE,45,1.0,2.0,72,0.00,,,0.00,Wunderground v.1.15,2013-12-24 12:31:00,
2013-12-24 06:32:00,35.8,27.7,30.44,NE,45,1.0,2.0,72,0.00,,,0.00,Wunderground v.1.15,2013-12-24 12:32:00,
2013-12-24 06:33:00,35.8,27.7,30.45,NE,45,1.0,2.0,72,0.00,,,0.00,Wunderground v.1.15,2013-12-24 12:33:00,
2013-12-24 06:36:00,35.8,27.7,30.45,NE,45,1.0,2.0,72,0.00,,,0.00,Wunderground v.1.15,2013-12-24 12:36:00,
2013-12-24 06:38:00,35.8,27.7,30.45,NE,45,1.0,2.0,72,0.00,,,0.00,Wunderground v.1.15,2013-12-24 12:38:00,
2013-12-24 06:41:00,35.8,27.7,30.45,NE,45,1.0,1.0,72,0.00,,,0.00,Wunderground v.1.15,2013-12-24 12:41:00,
2013-12-24 06:43:00,35.8,27.7,30.45,NE,45,1.0,1.0,72,0.00,,,0.00,Wunderground v.1.15,2013-12-24 12:43:00,
2013-12-24 06:47:00,35.8,27.7,30.45,NE,45,0.0,1.0,72,0.00,,,0.00,Wunderground v.1.15,2013-12-24 12:47:00,
2013-12-24 06:51:00,35.8,27.7,30.45,NE,45,1.0,1.0,72,0.00,,,0.00,Wunderground v.1.15,2013-12-24 12:51:00,
2013-12-24 06:52:00,35.8,27.7,30.45,NE,45,1.0,2.0,72,0.00,,,0.00,Wunderground v.1.15,2013-12-24 12:52:00,
2013-12-24 06:53:00,35.9,27.7,30.45,NE,45,1.0,3.0,72,0.00,,,0.00,Wunderground v.1.15,2013-12-24 12:53:00,
2013-12-24 06:54:00,35.9,27.7,30.45,NE,45,1.0,3.0,72,0.00,,,0.00,Wunderground v.1.15,2013-12-24 12:54:00,
2013-12-24 06:55:00,35.9,27.7,30.45,NE,45,1.0,3.0,72,0.00,,,0.00,Wunderground v.1.15,2013-12-24 12:55:00,
2013-12-24 06:58:00,36.0,27.8,30.45,NE,45,2.0,3.0,72,0.00,,,0.00,Wunderground v.1.15,2013-12-24 12:58:00,
2013-12-24 07:01:00,36.0,27.8,30.45,NE,45,2.0,2.0,72,0.00,,,0.00,Wunderground v.1.15,2013-12-24 13:01:00,
2013-12-24 07:02:00,36.0,27.8,30.45,NE,45,2.0,2.0,72,0.00,,,0.00,Wunderground v.1.15,2013-12-24 13:02:00,
2013-12-24 07:04:00,36.0,27.8,30.45,NE,45,2.0,2.0,72,0.00,,,0.00,Wunderground v.1.15,2013-12-24 13:04:00,
2013-12-24 07:05:00,36.0,27.8,30.45,NE,45,2.0,3.0,72,0.00,,,0.00,Wunderground v.1.15,2013-12-24 13:05:00,
2013-12-24 07:07:00,35.9,27.7,30.45,NE,45,2.0,3.0,72,0.00,,,0.00,Wunderground v.1.15,2013-12-24 13:07:00,
2013-12-24 07:08:00,35.9,27.7,30.45,NE,45,2.0,3.0,72,0.00,,,0.00,Wunderground v.1.15,2013-12-24 13:08:00,
2013-12-24 07:11:00,35.9,27.7,30.45,NE,45,2.0,3.0,72,0.00,,,0.00,Wunderground v.1.15,2013-12-24 13:11:00,
2013-12-24 07:15:00,35.8,27.7,30.45,NE,45,2.0,3.0,72,0.00,,,0.00,Wunderground v.1.15,2013-12-24 13:15:00,
2013-12-24 07:16:00,35.6,27.5,30.45,NE,45,2.0,3.0,72,0.00,,,0.00,Wunderground v.1.15,2013-12-24 13:16:00,
2013-12-24 07:17:00,35.6,27.5,30.45,NE,45,2.0,3.0,72,0.00,,,0.00,Wunderground v.1.15,2013-12-24 13:17:00,
2013-12-24 07:18:00,35.6,27.5,30.45,NE,45,2.0,3.0,72,0.00,,,0.00,Wunderground v.1.15,2013-12-24 13:18:00,
2013-12-24 07:21:00,35.5,27.4,30.45,NE,45,2.0,2.0,72,0.00,,,0.00,Wunderground v.1.15,2013-12-24 13:21:00,
2013-12-24 07:22:00,35.5,27.4,30.45,NE,45,2.0,2.0,72,0.00,,,0.00,Wunderground v.1.15,2013-12-24 13:22:00,
2013-12-24 07:24:00,35.3,27.2,30.45,NE,45,1.0,2.0,72,0.00,,,0.00,Wunderground v.1.15,2013-12-24 13:24:00,
2013-12-24 07:25:00,35.3,27.5,30.45,NE,45,1.0,2.0,73,0.00,,,0.00,Wunderground v.1.15,2013-12-24 13:25:00,
2013-12-24 07:28:00,35.2,27.4,30.45,NE,45,1.0,2.0,73,0.00,,,0.00,Wunderground v.1.15,2013-12-24 13:28:00,
2013-12-24 07:31:00,35.2,27.4,30.45,NE,45,1.0,1.0,73,0.00,,,0.00,Wunderground v.1.15,2013-12-24 13:31:00,
2013-12-24 07:33:00,35.0,27.2,30.45,NE,45,1.0,2.0,73,0.00,,,0.00,Wunderground v.1.15,2013-12-24 13:33:00,
2013-12-24 07:36:00,35.0,27.2,30.45,NE,45,1.0,2.0,73,0.00,,,0.00,Wunderground v.1.15,2013-12-24 13:36:00,
2013-12-24 07:38:00,35.0,27.5,30.45,NE,45,1.0,2.0,74,0.00,,,0.00,Wunderground v.1.15,2013-12-24 13:38:00,
2013-12-24 07:41:00,35.2,27.7,30.45,NE,45,1.0,2.0,74,0.00,,,0.00,Wunderground v.1.15,2013-12-24 13:41:00,
2013-12-24 07:42:00,35.3,27.8,30.45,NE,45,2.0,2.0,74,0.00,,,0.00,Wunderground v.1.15,2013-12-24 13:42:00,
2013-12-24 07:44:00,35.5,28.0,30.45,NE,45,2.0,5.0,74,0.00,,,0.00,Wunderground v.1.15,2013-12-24 13:44:00,
2013-12-24 07:45:00,35.5,28.0,30.45,NE,45,2.0,5.0,74,0.00,,,0.00,Wunderground v.1.15,2013-12-24 13:45:00,
2013-12-24 07:46:00,35.6,27.8,30.45,NE,45,2.0,5.0,73,0.00,,,0.00,Wunderground v.1.15,2013-12-24 13:46:00,
2013-12-24 07:48:00,35.8,28.0,30.45,NE,45,2.0,5.0,73,0.00,,,0.00,Wunderground v.1.15,2013-12-24 13:48:00,
2013-12-24 07:51:00,35.9,28.1,30.45,NE,45,2.0,2.0,73,0.00,,,0.00,Wunderground v.1.15,2013-12-24 13:51:00,
2013-12-24 07:53:00,35.9,28.1,30.45,NE,45,2.0,2.0,73,0.00,,,0.00,Wunderground v.1.15,2013-12-24 13:53:00,
2013-12-24 07:54:00,36.0,28.2,30.45,NE,45,2.0,2.0,73,0.00,,,0.00,Wunderground v.1.15,2013-12-24 13:54:00,
2013-12-24 07:56:00,36.2,28.4,30.45,NE,45,2.0,2.0,73,0.00,,,0.00,Wunderground v.1.15,2013-12-24 13:56:00,
2013-12-24 07:58:00,36.2,28.4,30.45,NE,45,2.0,2.0,73,0.00,,,0.00,Wunderground v.1.15,2013-12-24 13:58:00,
2013-12-24 08:01:00,36.3,28.1,30.45,NE,45,2.0,3.0,72,0.00,,,0.00,Wunderground v.1.15,2013-12-24 14:01:00,
2013-12-24 08:03:00,36.5,28.3,30.45,NE,45,2.0,3.0,72,0.00,,,0.00,Wunderground v.1.15,2013-12-24 14:03:00,
2013-12-24 08:05:00,36.5,28.3,30.45,NE,45,3.0,3.0,72,0.00,,,0.00,Wunderground v.1.15,2013-12-24 14:05:00,
2013-12-24 08:07:00,36.5,28.3,30.45,NE,45,3.0,3.0,72,0.00,,,0.00,Wunderground v.1.15,2013-12-24 14:07:00,
2013-12-24 08:08:00,36.5,28.3,30.45,NE,45,3.0,4.0,72,0.00,,,0.00,Wunderground v.1.15,2013-12-24 14:08:00,
2013-12-24 08:11:00,36.6,28.4,30.45,NE,45,3.0,3.0,72,0.00,,,0.00,Wunderground v.1.15,2013-12-24 14:11:00,
2013-12-24 08:12:00,36.6,28.4,30.45,NE,45,3.0,3.0,72,0.00,,,0.00,Wunderground v.1.15,2013-12-24 14:12:00,
2013-12-24 08:13:00,36.8,28.6,30.45,NE,47,3.0,3.0,72,0.00,,,0.00,Wunderground v.1.15,2013-12-24 14:13:00,
2013-12-24 08:14:00,36.8,28.6,30.45,NE,47,3.0,3.0,72,0.00,,,0.00,Wunderground v.1.15,2013-12-24 14:14:00,
2013-12-24 08:21:00,37.2,29.0,30.45,NE,47,3.0,3.0,72,0.00,,,0.00,Wunderground v.1.15,2013-12-24 14:21:00,
2013-12-24 08:22:00,37.2,29.0,30.45,NE,47,3.0,3.0,72,0.00,,,0.00,Wunderground v.1.15,2013-12-24 14:22:00,
2013-12-24 08:27:00,37.6,29.4,30.45,NE,47,2.0,3.0,72,0.00,,,0.00,Wunderground v.1.15,2013-12-24 14:27:00,
2013-12-24 08:31:00,38.0,29.8,30.45,NE,47,2.0,2.0,72,0.00,,,0.00,Wunderground v.1.15,2013-12-24 14:31:00,
2013-12-24 08:32:00,38.2,29.6,30.45,NE,47,2.0,2.0,71,0.00,,,0.00,Wunderground v.1.15,2013-12-24 14:32:00,
2013-12-24 08:34:00,38.3,29.7,30.46,NE,47,1.0,2.0,71,0.00,,,0.00,Wunderground v.1.15,2013-12-24 14:34:00,
2013-12-24 08:35:00,38.3,29.7,30.46,NE,47,1.0,2.0,71,0.00,,,0.00,Wunderground v.1.15,2013-12-24 14:35:00,
2013-12-24 08:37:00,38.9,30.3,30.46,NE,38,1.0,3.0,71,0.00,,,0.00,Wunderground v.1.15,2013-12-24 14:37:00,
2013-12-24 08:41:00,39.3,30.3,30.46,NE,38,1.0,2.0,70,0.00,,,0.00,Wunderground v.1.15,2013-12-24 14:41:00,
2013-12-24 08:44:00,39.6,30.3,30.46,NE,41,2.0,4.0,69,0.00,,,0.00,Wunderground v.1.15,2013-12-24 14:44:00,
2013-12-24 08:45:00,39.6,30.3,30.46,NE,41,1.0,4.0,69,0.00,,,0.00,Wunderground v.1.15,2013-12-24 14:45:00,
2013-12-24 08:51:00,40.5,30.8,30.45,NE,42,1.0,1.0,68,0.00,,,0.00,Wunderground v.1.15,2013-12-24 14:51:00,
2013-12-24 08:53:00,40.8,31.1,30.45,NE,42,1.0,1.0,68,0.00,,,0.00,Wunderground v.1.15,2013-12-24 14:53:00,
2013-12-24 08:54:00,40.9,31.1,30.45,NE,42,1.0,1.0,68,0.00,,,0.00,Wunderground v.1.15,2013-12-24 14:54:00,
2013-12-24 08:55:00,41.2,31.4,30.45,NE,42,1.0,1.0,68,0.00,,,0.00,Wunderground v.1.15,2013-12-24 14:55:00,
2013-12-24 08:57:00,41.5,31.0,30.45,NE,42,1.0,1.0,66,0.00,,,0.00,Wunderground v.1.15,2013-12-24 14:57:00,
2013-12-24 08:58:00,41.5,31.0,30.45,NE,42,1.0,2.0,66,0.00,,,0.00,Wunderground v.1.15,2013-12-24 14:58:00,
2013-12-24 09:02:00,42.1,31.2,30.45,East,86,1.0,5.0,65,0.00,,,0.00,Wunderground v.1.15,2013-12-24 15:02:00,
2013-12-24 09:03:00,42.2,30.9,30.46,East,80,1.0,5.0,64,0.00,,,0.00,Wunderground v.1.15,2013-12-24 15:03:00,
2013-12-24 09:06:00,42.3,31.0,30.46,NE,51,1.0,5.0,64,0.00,,,0.00,Wunderground v.1.15,2013-12-24 15:06:00,
2013-12-24 09:07:00,42.5,31.2,30.46,NE,51,2.0,5.0,64,0.00,,,0.00,Wunderground v.1.15,2013-12-24 15:07:00,
2013-12-24 09:11:00,42.9,31.2,30.46,NE,51,1.0,1.0,63,0.00,,,0.00,Wunderground v.1.15,2013-12-24 15:11:00,
2013-12-24 09:12:00,43.1,31.4,30.46,NE,51,1.0,1.0,63,0.00,,,0.00,Wunderground v.1.15,2013-12-24 15:12:00,
2013-12-24 09:13:00,43.2,31.1,30.46,ENE,66,1.0,1.0,62,0.00,,,0.00,Wunderground v.1.15,2013-12-24 15:13:00,
2013-12-24 09:16:00,43.3,31.1,30.46,ENE,66,1.0,1.0,62,0.00,,,0.00,Wunderground v.1.15,2013-12-24 15:16:00,
2013-12-24 09:21:00,43.5,31.3,30.46,East,86,1.0,1.0,62,0.00,,,0.00,Wunderground v.1.15,2013-12-24 15:21:00,
2013-12-24 09:22:00,43.6,31.4,30.46,East,86,2.0,3.0,62,0.00,,,0.00,Wunderground v.1.15,2013-12-24 15:22:00,
2013-12-24 09:24:00,43.8,31.6,30.46,East,93,2.0,3.0,62,0.00,,,0.00,Wunderground v.1.15,2013-12-24 15:24:00,
2013-12-24 09:27:00,44.1,31.9,30.46,East,93,1.0,3.0,62,0.00,,,0.00,Wunderground v.1.15,2013-12-24 15:27:00,
2013-12-24 09:31:00,44.2,31.6,30.46,SE,143,2.0,2.0,61,0.00,,,0.00,Wunderground v.1.15,2013-12-24 15:31:00,
2013-12-24 09:33:00,44.2,31.6,30.46,SE,134,2.0,3.0,61,0.00,,,0.00,Wunderground v.1.15,2013-12-24 15:33:00,
2013-12-24 09:36:00,44.3,31.7,30.46,SE,136,3.0,3.0,61,0.00,,,0.00,Wunderground v.1.15,2013-12-24 15:36:00,
2013-12-24 09:38:00,44.3,31.7,30.46,SE,127,3.0,7.0,61,0.00,,,0.00,Wunderground v.1.15,2013-12-24 15:38:00,
2013-12-24 09:40:00,44.2,31.2,30.46,ESE,114,3.0,3.0,60,0.00,,,0.00,Wunderground v.1.15,2013-12-24 15:40:00,
2013-12-24 09:44:00,44.6,32.0,30.46,SSE,150,3.0,3.0,61,0.00,,,0.00,Wunderground v.1.15,2013-12-24 15:44:00,
2013-12-24 09:46:00,45.1,31.6,30.46,ESE,119,3.0,4.0,59,0.00,,,0.00,Wunderground v.1.15,2013-12-24 15:46:00,
2013-12-24 09:50:00,44.9,31.0,30.46,ESE,116,3.0,3.0,58,0.00,,,0.00,Wunderground v.1.15,2013-12-24 15:50:00,
2013-12-24 09:51:00,44.9,31.4,30.46,ESE,116,3.0,3.0,59,0.00,,,0.00,Wunderground v.1.15,2013-12-24 15:51:00,
2013-12-24 09:53:00,45.4,31.5,30.46,South,175,3.0,3.0,58,0.00,,,0.00,Wunderground v.1.15,2013-12-24 15:53:00,
2013-12-24 09:54:00,45.5,31.6,30.46,South,184,3.0,3.0,58,0.00,,,0.00,Wunderground v.1.15,2013-12-24 15:54:00,
2013-12-24 09:56:00,45.5,30.7,30.46,SE,134,4.0,5.0,56,0.00,,,0.00,Wunderground v.1.15,2013-12-24 15:56:00,
2013-12-24 09:57:00,45.7,31.3,30.46,South,169,4.0,5.0,57,0.00,,,0.00,Wunderground v.1.15,2013-12-24 15:57:00,
2013-12-24 10:00:00,46.0,31.2,30.46,SE,126,3.0,7.0,56,0.00,,,0.00,Wunderground v.1.15,2013-12-24 16:00:00,
2013-12-24 10:01:00,46.1,31.3,30.46,SE,126,4.0,7.0,56,0.00,,,0.00,Wunderground v.1.15,2013-12-24 16:01:00,
2013-12-24 10:02:00,46.2,31.4,30.46,SE,126,3.0,7.0,56,0.00,,,0.00,Wunderground v.1.15,2013-12-24 16:02:00,
2013-12-24 10:03:00,46.2,30.9,30.46,SE,133,3.0,7.0,55,0.00,,,0.00,Wunderground v.1.15,2013-12-24 16:03:00,
2013-12-24 10:05:00,46.4,30.6,30.46,SE,131,3.0,7.0,54,0.00,,,0.00,Wunderground v.1.15,2013-12-24 16:05:00,
2013-12-24 10:06:00,46.4,30.6,30.46,SE,134,3.0,7.0,54,0.00,,,0.00,Wunderground v.1.15,2013-12-24 16:06:00,
2013-12-24 10:10:00,46.8,30.6,30.46,SE,143,3.0,5.0,53,0.00,,,0.00,Wunderground v.1.15,2013-12-24 16:10:00,
2013-12-24 10:11:00,46.8,30.6,30.46,SSE,150,3.0,5.0,53,0.00,,,0.00,Wunderground v.1.15,2013-12-24 16:11:00,
2013-12-24 10:15:00,46.8,30.6,30.46,SE,136,4.0,6.0,53,0.00,,,0.00,Wunderground v.1.15,2013-12-24 16:15:00,
2013-12-24 10:20:00,47.0,30.7,30.46,SE,145,4.0,8.0,53,0.00,,,0.00,Wunderground v.1.15,2013-12-24 16:20:00,
2013-12-24 10:21:00,47.0,30.3,30.46,SE,128,4.0,8.0,52,0.00,,,0.00,Wunderground v.1.15,2013-12-24 16:21:00,
2013-12-24 10:25:00,47.1,29.9,30.46,South,172,4.0,8.0,51,0.00,,,0.00,Wunderground v.1.15,2013-12-24 16:25:00,
2013-12-24 10:26:00,47.1,29.9,30.46,SE,133,4.0,8.0,51,0.00,,,0.00,Wunderground v.1.15,2013-12-24 16:26:00,
2013-12-24 10:30:00,47.6,30.3,30.46,ESE,114,4.0,4.0,51,0.00,,,0.00,Wunderground v.1.15,2013-12-24 16:30:00,
2013-12-24 10:31:00,47.6,30.8,30.46,ESE,116,3.0,4.0,52,0.00,,,0.00,Wunderground v.1.15,2013-12-24 16:31:00,
2013-12-24 10:32:00,47.7,30.9,30.45,East,99,3.0,5.0,52,0.00,,,0.00,Wunderground v.1.15,2013-12-24 16:32:00,
2013-12-24 10:35:00,48.0,30.7,30.45,ESE,110,3.0,5.0,51,0.00,,,0.00,Wunderground v.1.15,2013-12-24 16:35:00,
2013-12-24 10:36:00,48.2,30.9,30.45,ESE,112,3.0,6.0,51,0.00,,,0.00,Wunderground v.1.15,2013-12-24 16:36:00,
2013-12-24 10:37:00,48.2,29.4,30.45,ESE,110,3.0,6.0,48,0.00,,,0.00,Wunderground v.1.15,2013-12-24 16:37:00,
2013-12-24 10:41:00,48.8,28.9,30.45,SSE,152,3.0,3.0,46,0.00,,,0.00,Wunderground v.1.15,2013-12-24 16:41:00,
2013-12-24 10:42:00,48.8,28.9,30.45,South,178,3.0,3.0,46,0.00,,,0.00,Wunderground v.1.15,2013-12-24 16:42:00,
2013-12-24 10:43:00,48.9,28.5,30.45,SSE,148,3.0,3.0,45,0.00,,,0.00,Wunderground v.1.15,2013-12-24 16:43:00,
2013-12-24 10:46:00,49.2,27.6,30.45,SE,126,4.0,7.0,43,0.00,,,0.00,Wunderground v.1.15,2013-12-24 16:46:00,
2013-12-24 10:47:00,49.2,27.6,30.45,ESE,110,4.0,7.0,43,0.00,,,0.00,Wunderground v.1.15,2013-12-24 16:47:00,
2013-12-24 10:50:00,49.1,27.5,30.45,ESE,113,4.0,4.0,43,0.00,,,0.00,Wunderground v.1.15,2013-12-24 16:50:00,
2013-12-24 10:52:00,49.2,27.6,30.45,ESE,116,5.0,5.0,43,0.00,,,0.00,Wunderground v.1.15,2013-12-24 16:52:00,
2013-12-24 10:53:00,49.1,27.0,30.45,ESE,113,4.0,5.0,42,0.00,,,0.00,Wunderground v.1.15,2013-12-24 16:53:00,
2013-12-24 10:54:00,49.2,28.2,30.45,SE,126,4.0,6.0,44,0.00,,,0.00,Wunderground v.1.15,2013-12-24 16:54:00,
2013-12-24 10:55:00,49.2,27.6,30.45,SE,126,4.0,6.0,43,0.00,,,0.00,Wunderground v.1.15,2013-12-24 16:55:00,
2013-12-24 11:00:00,49.4,27.8,30.45,ESE,112,4.0,5.0,43,0.00,,,0.00,Wunderground v.1.15,2013-12-24 17:00:00,
2013-12-24 11:01:00,49.5,27.9,30.45,SE,128,4.0,6.0,43,0.00,,,0.00,Wunderground v.1.15,2013-12-24 17:01:00,
2013-12-24 11:03:00,49.4,27.8,30.44,ESE,102,4.0,6.0,43,0.00,,,0.00,Wunderground v.1.15,2013-12-24 17:03:00,
2013-12-24 11:04:00,49.4,27.8,30.44,ESE,116,5.0,7.0,43,0.00,,,0.00,Wunderground v.1.15,2013-12-24 17:04:00,
2013-12-24 11:06:00,49.2,27.6,30.44,SE,141,5.0,7.0,43,0.00,,,0.00,Wunderground v.1.15,2013-12-24 17:06:00,
2013-12-24 11:07:00,49.2,27.6,30.44,ESE,104,5.0,7.0,43,0.00,,,0.00,Wunderground v.1.15,2013-12-24 17:07:00,
2013-12-24 11:11:00,49.8,27.0,30.44,SSE,147,5.0,5.0,41,0.00,,,0.00,Wunderground v.1.15,2013-12-24 17:11:00,
2013-12-24 11:12:00,49.8,27.0,30.44,SSE,150,5.0,5.0,41,0.00,,,0.00,Wunderground v.1.15,2013-12-24 17:12:00,
2013-12-24 11:13:00,49.9,27.1,30.44,SSE,151,5.0,5.0,41,0.00,,,0.00,Wunderground v.1.15,2013-12-24 17:13:00,
2013-12-24 11:14:00,49.9,27.1,30.44,SSE,152,4.0,5.0,41,0.00,,,0.00,Wunderground v.1.15,2013-12-24 17:14:00,
2013-12-24 11:20:00,50.8,26.1,30.44,SSE,162,3.0,3.0,38,0.00,,,0.00,Wunderground v.1.15,2013-12-24 17:20:00,
2013-12-24 11:21:00,50.8,26.1,30.44,SSE,162,3.0,3.0,38,0.00,,,0.00,Wunderground v.1.15,2013-12-24 17:21:00,
2013-12-24 11:22:00,50.8,26.1,30.44,SSW,209,2.0,3.0,38,0.00,,,0.00,Wunderground v.1.15,2013-12-24 17:22:00,
2013-12-24 11:24:00,51.1,25.7,30.44,SW,222,2.0,5.0,37,0.00,,,0.00,Wunderground v.1.15,2013-12-24 17:24:00,
2013-12-24 11:26:00,51.3,24.5,30.44,SE,131,2.0,5.0,35,0.00,,,0.00,Wunderground v.1.15,2013-12-24 17:26:00,
2013-12-24 11:30:00,51.3,25.9,30.44,South,175,3.0,5.0,37,0.00,,,0.00,Wunderground v.1.15,2013-12-24 17:30:00,
2013-12-24 11:33:00,51.6,26.8,30.43,SSW,205,4.0,5.0,38,0.00,,,0.00,Wunderground v.1.15,2013-12-24 17:33:00,
2013-12-24 11:35:00,51.7,26.9,30.43,SSW,200,4.0,5.0,38,0.00,,,0.00,Wunderground v.1.15,2013-12-24 17:35:00,
2013-12-24 11:36:00,51.9,26.4,30.43,SSW,195,4.0,5.0,37,0.00,,,0.00,Wunderground v.1.15,2013-12-24 17:36:00,
2013-12-24 11:37:00,52.0,26.5,30.43,SSE,162,4.0,5.0,37,0.00,,,0.00,Wunderground v.1.15,2013-12-24 17:37:00,
2013-12-24 11:41:00,51.9,25.8,30.43,SSE,151,4.0,4.0,36,0.00,,,0.00,Wunderground v.1.15,2013-12-24 17:41:00,
2013-12-24 11:42:00,51.9,25.8,30.43,SE,134,4.0,11.0,36,0.00,,,0.00,Wunderground v.1.15,2013-12-24 17:42:00,
2013-12-24 11:44:00,51.9,25.1,30.43,SSE,157,5.0,11.0,35,0.00,,,0.00,Wunderground v.1.15,2013-12-24 17:44:00,
2013-12-24 11:46:00,52.0,25.2,30.43,SE,127,5.0,11.0,35,0.00,,,0.00,Wunderground v.1.15,2013-12-24 17:46:00,
2013-12-24 11:47:00,52.0,25.2,30.43,South,172,5.0,11.0,35,0.00,,,0.00,Wunderground v.1.15,2013-12-24 17:47:00,
2013-12-24 11:48:00,52.0,25.2,30.42,South,172,5.0,11.0,35,0.00,,,0.00,Wunderground v.1.15,2013-12-24 17:48:00,
2013-12-24 11:52:00,52.6,25.7,30.42,SSW,206,4.0,7.0,35,0.00,,,0.00,Wunderground v.1.15,2013-12-24 17:52:00,
2013-12-24 11:53:00,52.6,25.7,30.42,South,185,4.0,7.0,35,0.00,,,0.00,Wunderground v.1.15,2013-12-24 17:53:00,
2013-12-24 11:54:00,52.8,24.5,30.42,SSW,206,4.0,7.0,33,0.00,,,0.00,Wunderground v.1.15,2013-12-24 17:54:00,
2013-12-24 11:55:00,52.9,24.5,30.42,SSW,193,3.0,7.0,33,0.00,,,0.00,Wunderground v.1.15,2013-12-24 17:55:00,
2013-12-24 11:57:00,52.9,23.0,30.42,SE,133,3.0,7.0,31,0.00,,,0.00,Wunderground v.1.15,2013-12-24 17:57:00,
2013-12-24 11:58:00,52.8,23.0,30.42,SE,140,4.0,7.0,31,0.00,,,0.00,Wunderground v.1.15,2013-12-24 17:58:00,
2013-12-24 12:02:00,52.6,22.8,30.42,South,175,4.0,6.0,31,0.00,,,0.00,Wunderground v.1.15,2013-12-24 18:02:00,
2013-12-24 12:03:00,52.8,23.7,30.41,South,175,4.0,6.0,32,0.00,,,0.00,Wunderground v.1.15,2013-12-24 18:03:00,
2013-12-24 12:04:00,52.9,23.8,30.41,South,171,4.0,6.0,32,0.00,,,0.00,Wunderground v.1.15,2013-12-24 18:04:00,
2013-12-24 12:05:00,53.1,24.0,30.41,SE,143,4.0,6.0,32,0.00,,,0.00,Wunderground v.1.15,2013-12-24 18:05:00,
2013-12-24 12:06:00,53.2,24.1,30.41,ESE,123,4.0,6.0,32,0.00,,,0.00,Wunderground v.1.15,2013-12-24 18:06:00,
2013-12-24 12:12:00,53.5,24.3,30.41,SE,137,3.0,3.0,32,0.00,,,0.00,Wunderground v.1.15,2013-12-24 18:12:00,
2013-12-24 12:13:00,53.6,22.1,30.41,South,175,3.0,5.0,29,0.00,,,0.00,Wunderground v.1.15,2013-12-24 18:13:00,
2013-12-24 12:15:00,54.1,23.3,30.41,SSE,165,3.0,6.0,30,0.00,,,0.00,Wunderground v.1.15,2013-12-24 18:15:00,
2013-12-24 12:17:00,54.1,21.7,30.41,SSE,167,3.0,8.0,28,0.00,,,0.00,Wunderground v.1.15,2013-12-24 18:17:00,
2013-12-24 12:18:00,53.9,21.5,30.40,South,174,3.0,8.0,28,0.00,,,0.00,Wunderground v.1.15,2013-12-24 18:18:00,
2013-12-24 12:22:00,54.2,23.4,30.40,South,174,3.0,4.0,30,0.00,,,0.00,Wunderground v.1.15,2013-12-24 18:22:00,
2013-12-24 12:26:00,54.5,22.9,30.40,SSE,147,3.0,8.0,29,0.00,,,0.00,Wunderground v.1.15,2013-12-24 18:26:00,
2013-12-24 12:27:00,54.4,22.8,30.40,ESE,116,3.0,8.0,29,0.00,,,0.00,Wunderground v.1.15,2013-12-24 18:27:00,
2013-12-24 12:28:00,54.2,22.6,30.40,ESE,119,3.0,8.0,29,0.00,,,0.00,Wunderground v.1.15,2013-12-24 18:28:00,
2013-12-24 12:33:00,55.0,24.9,30.38,SSE,160,3.0,5.0,31,0.00,,,0.00,Wunderground v.1.15,2013-12-24 18:33:00,
2013-12-24 12:35:00,54.8,23.1,30.38,South,189,3.0,7.0,29,0.00,,,0.00,Wunderground v.1.15,2013-12-24 18:35:00,
2013-12-24 12:36:00,54.8,22.3,30.38,South,179,3.0,7.0,28,0.00,,,0.00,Wunderground v.1.15,2013-12-24 18:36:00,
2013-12-24 12:38:00,55.0,22.4,30.38,South,179,3.0,7.0,28,0.00,,,0.00,Wunderground v.1.15,2013-12-24 18:38:00,
2013-12-24 12:41:00,55.3,23.5,30.38,South,185,4.0,5.0,29,0.00,,,0.00,Wunderground v.1.15,2013-12-24 18:41:00,
2013-12-24 12:42:00,55.3,22.7,30.38,SSW,193,4.0,5.0,28,0.00,,,0.00,Wunderground v.1.15,2013-12-24 18:42:00,
2013-12-24 12:43:00,55.3,23.5,30.38,SSW,195,4.0,5.0,29,0.00,,,0.00,Wunderground v.1.15,2013-12-24 18:43:00,
2013-12-24 12:46:00,55.3,24.4,30.38,SW,236,3.0,6.0,30,0.00,,,0.00,Wunderground v.1.15,2013-12-24 18:46:00,
2013-12-24 12:47:00,55.3,25.1,30.38,SE,130,3.0,6.0,31,0.00,,,0.00,Wunderground v.1.15,2013-12-24 18:47:00,
2013-12-24 12:48:00,55.4,25.2,30.37,South,189,3.0,6.0,31,0.00,,,0.00,Wunderground v.1.15,2013-12-24 18:48:00,
2013-12-24 12:52:00,55.1,25.0,30.37,SSE,158,3.0,7.0,31,0.00,,,0.00,Wunderground v.1.15,2013-12-24 18:52:00,
2013-12-24 12:55:00,55.3,24.4,30.37,South,172,3.0,7.0,30,0.00,,,0.00,Wunderground v.1.15,2013-12-24 18:55:00,
2013-12-24 12:56:00,55.3,24.4,30.37,SSE,162,3.0,7.0,30,0.00,,,0.00,Wunderground v.1.15,2013-12-24 18:56:00,
2013-12-24 12:57:00,55.3,24.4,30.37,South,189,3.0,7.0,30,0.00,,,0.00,Wunderground v.1.15,2013-12-24 18:57:00,
2013-12-24 12:58:00,55.3,25.1,30.37,SSW,206,4.0,7.0,31,0.00,,,0.00,Wunderground v.1.15,2013-12-24 18:58:00,
2013-12-24 13:01:00,55.3,25.1,30.37,West,263,4.0,5.0,31,0.00,,,0.00,Wunderground v.1.15,2013-12-24 19:01:00,
2013-12-24 13:02:00,55.3,25.1,30.37,West,263,4.0,5.0,31,0.00,,,0.00,Wunderground v.1.15,2013-12-24 19:02:00,
2013-12-24 13:06:00,55.3,23.5,30.36,SE,124,4.0,7.0,29,0.00,,,0.00,Wunderground v.1.15,2013-12-24 19:06:00,
2013-12-24 13:07:00,55.4,22.8,30.36,SSE,151,4.0,7.0,28,0.00,,,0.00,Wunderground v.1.15,2013-12-24 19:07:00,
2013-12-24 13:08:00,55.6,23.8,30.36,SSE,162,3.0,7.0,29,0.00,,,0.00,Wunderground v.1.15,2013-12-24 19:08:00,
2013-12-24 13:11:00,56.0,23.3,30.36,SE,126,3.0,3.0,28,0.00,,,0.00,Wunderground v.1.15,2013-12-24 19:11:00,
2013-12-24 13:14:00,56.2,22.6,30.36,SW,230,3.0,6.0,27,0.00,,,0.00,Wunderground v.1.15,2013-12-24 19:14:00,
2013-12-24 13:15:00,56.2,23.5,30.36,WSW,253,3.0,6.0,28,0.00,,,0.00,Wunderground v.1.15,2013-12-24 19:15:00,
2013-12-24 13:16:00,56.3,23.6,30.36,WSW,243,3.0,7.0,28,0.00,,,0.00,Wunderground v.1.15,2013-12-24 19:16:00,
2013-12-24 13:17:00,56.3,23.6,30.36,SW,229,4.0,7.0,28,0.00,,,0.00,Wunderground v.1.15,2013-12-24 19:17:00,
2013-12-24 13:21:00,56.5,23.7,30.35,SE,138,3.0,8.0,28,0.00,,,0.00,Wunderground v.1.15,2013-12-24 19:21:00,
2013-12-24 13:22:00,56.5,22.9,30.35,ESE,106,3.0,8.0,27,0.00,,,0.00,Wunderground v.1.15,2013-12-24 19:22:00,
2013-12-24 13:27:00,56.7,23.9,30.35,SW,232,3.0,8.0,28,0.00,,,0.00,Wunderground v.1.15,2013-12-24 19:27:00,
2013-12-24 13:28:00,56.7,23.9,30.35,SSW,206,3.0,8.0,28,0.00,,,0.00,Wunderground v.1.15,2013-12-24 19:28:00,
2013-12-24 13:32:00,56.7,23.9,30.35,SE,140,4.0,4.0,28,0.00,,,0.00,Wunderground v.1.15,2013-12-24 19:32:00,
2013-12-24 13:33:00,56.9,23.2,30.34,SW,220,4.0,4.0,27,0.00,,,0.00,Wunderground v.1.15,2013-12-24 19:33:00,
2013-12-24 13:36:00,57.0,22.4,30.34,WSW,244,4.0,5.0,26,0.00,,,0.00,Wunderground v.1.15,2013-12-24 19:36:00,
2013-12-24 13:38:00,57.2,23.5,30.34,SSW,198,4.0,5.0,27,0.00,,,0.00,Wunderground v.1.15,2013-12-24 19:38:00,
2013-12-24 13:41:00,56.7,22.2,30.34,SSW,206,4.0,5.0,26,0.00,,,0.00,Wunderground v.1.15,2013-12-24 19:41:00,
2013-12-24 13:44:00,56.6,22.1,30.34,SE,133,5.0,7.0,26,0.00,,,0.00,Wunderground v.1.15,2013-12-24 19:44:00,
2013-12-24 13:46:00,56.3,20.9,30.34,South,172,5.0,7.0,25,0.00,,,0.00,Wunderground v.1.15,2013-12-24 19:46:00,
2013-12-24 13:51:00,55.9,21.5,30.33,SE,138,6.0,8.0,26,0.00,,,0.00,Wunderground v.1.15,2013-12-24 19:51:00,
2013-12-24 13:52:00,55.9,21.5,30.33,SE,138,6.0,8.0,26,0.00,,,0.00,Wunderground v.1.15,2013-12-24 19:52:00,
2013-12-24 13:53:00,55.9,21.5,30.33,SE,126,7.0,8.0,26,0.00,,,0.00,Wunderground v.1.15,2013-12-24 19:53:00,
2013-12-24 13:54:00,56.2,22.6,30.33,SSW,210,6.0,8.0,27,0.00,,,0.00,Wunderground v.1.15,2013-12-24 19:54:00,
2013-12-24 13:56:00,56.5,22.0,30.33,SSE,167,6.0,8.0,26,0.00,,,0.00,Wunderground v.1.15,2013-12-24 19:56:00,
2013-12-24 13:58:00,56.6,22.1,30.33,SW,217,6.0,11.0,26,0.00,,,0.00,Wunderground v.1.15,2013-12-24 19:58:00,
2013-12-24 14:01:00,56.6,21.1,30.33,South,171,5.0,5.0,25,0.00,,,0.00,Wunderground v.1.15,2013-12-24 20:01:00,
2013-12-24 14:02:00,56.6,22.1,30.33,SE,126,4.0,7.0,26,0.00,,,0.00,Wunderground v.1.15,2013-12-24 20:02:00,
2013-12-24 14:03:00,56.5,22.0,30.32,SE,140,4.0,7.0,26,0.00,,,0.00,Wunderground v.1.15,2013-12-24 20:03:00,
2013-12-24 14:04:00,56.5,22.0,30.32,SE,141,4.0,7.0,26,0.00,,,0.00,Wunderground v.1.15,2013-12-24 20:04:00,
2013-12-24 14:07:00,56.9,22.3,30.32,South,191,4.0,7.0,26,0.00,,,0.00,Wunderground v.1.15,2013-12-24 20:07:00,
2013-12-24 14:08:00,56.9,22.3,30.32,SSW,202,4.0,7.0,26,0.00,,,0.00,Wunderground v.1.15,2013-12-24 20:08:00,
2013-12-24 14:12:00,57.2,23.5,30.32,SW,226,4.0,6.0,27,0.00,,,0.00,Wunderground v.1.15,2013-12-24 20:12:00,
2013-12-24 14:13:00,57.3,22.7,30.32,SW,222,4.0,6.0,26,0.00,,,0.00,Wunderground v.1.15,2013-12-24 20:13:00,
2013-12-24 14:14:00,57.5,23.7,30.32,SE,140,4.0,6.0,27,0.00,,,0.00,Wunderground v.1.15,2013-12-24 20:14:00,
2013-12-24 14:16:00,57.5,22.8,30.32,SSW,203,5.0,10.0,26,0.00,,,0.00,Wunderground v.1.15,2013-12-24 20:16:00,
2013-12-24 14:17:00,57.3,22.7,30.32,SSE,151,5.0,10.0,26,0.00,,,0.00,Wunderground v.1.15,2013-12-24 20:17:00,
2013-12-24 14:18:00,57.2,22.6,30.32,SSE,164,5.0,10.0,26,0.00,,,0.00,Wunderground v.1.15,2013-12-24 20:18:00,
2013-12-24 14:21:00,57.0,22.4,30.32,South,191,5.0,5.0,26,0.00,,,0.00,Wunderground v.1.15,2013-12-24 20:21:00,
2013-12-24 14:22:00,57.0,23.3,30.32,SE,127,5.0,6.0,27,0.00,,,0.00,Wunderground v.1.15,2013-12-24 20:22:00,
2013-12-24 14:23:00,57.0,23.3,30.32,SSE,154,5.0,6.0,27,0.00,,,0.00,Wunderground v.1.15,2013-12-24 20:23:00,
2013-12-24 14:24:00,56.9,23.2,30.32,SE,138,5.0,6.0,27,0.00,,,0.00,Wunderground v.1.15,2013-12-24 20:24:00,
2013-12-24 14:26:00,56.7,23.0,30.32,SE,134,4.0,6.0,27,0.00,,,0.00,Wunderground v.1.15,2013-12-24 20:26:00,
2013-12-24 14:27:00,56.7,23.9,30.32,SSW,205,4.0,6.0,28,0.00,,,0.00,Wunderground v.1.15,2013-12-24 20:27:00,
2013-12-24 14:28:00,57.0,24.2,30.32,South,176,3.0,8.0,28,0.00,,,0.00,Wunderground v.1.15,2013-12-24 20:28:00,
2013-12-24 14:31:00,57.2,23.5,30.32,SSE,164,3.0,3.0,27,0.00,,,0.00,Wunderground v.1.15,2013-12-24 20:31:00,
2013-12-24 14:33:00,57.3,22.7,30.32,SSW,206,4.0,9.0,26,0.00,,,0.00,Wunderground v.1.15,2013-12-24 20:33:00,
2013-12-24 14:34:00,57.5,22.8,30.32,WSW,250,3.0,9.0,26,0.00,,,0.00,Wunderground v.1.15,2013-12-24 20:34:00,
2013-12-24 14:35:00,57.5,23.7,30.32,SSW,209,3.0,9.0,27,0.00,,,0.00,Wunderground v.1.15,2013-12-24 20:35:00,
2013-12-24 14:38:00,57.5,21.9,30.32,SE,131,4.0,9.0,25,0.00,,,0.00,Wunderground v.1.15,2013-12-24 20:38:00,
2013-12-24 14:41:00,57.5,22.8,30.32,East,85,4.0,4.0,26,0.00,,,0.00,Wunderground v.1.15,2013-12-24 20:41:00,
2013-12-24 14:43:00,57.3,21.7,30.32,SW,226,4.0,4.0,25,0.00,,,0.00,Wunderground v.1.15,2013-12-24 20:43:00,
2013-12-24 14:46:00,57.5,22.8,30.32,South,174,4.0,6.0,26,0.00,,,0.00,Wunderground v.1.15,2013-12-24 20:46:00,
2013-12-24 14:48:00,57.5,21.9,30.31,SSW,195,4.0,7.0,25,0.00,,,0.00,Wunderground v.1.15,2013-12-24 20:48:00,
2013-12-24 14:51:00,57.8,22.2,30.31,South,171,4.0,4.0,25,0.00,,,0.00,Wunderground v.1.15,2013-12-24 20:51:00,
2013-12-24 14:53:00,57.8,22.2,30.31,SE,131,4.0,10.0,25,0.00,,,0.00,Wunderground v.1.15,2013-12-24 20:53:00,
2013-12-24 14:54:00,58.0,22.3,30.31,South,171,4.0,10.0,25,0.00,,,0.00,Wunderground v.1.15,2013-12-24 20:54:00,
2013-12-24 14:55:00,58.0,22.3,30.31,SSE,152,4.0,10.0,25,0.00,,,0.00,Wunderground v.1.15,2013-12-24 20:55:00,
2013-12-24 14:56:00,57.8,21.2,30.31,SE,136,4.0,10.0,24,0.00,,,0.00,Wunderground v.1.15,2013-12-24 20:56:00,
2013-12-24 14:58:00,57.6,22.0,30.31,SE,133,4.0,10.0,25,0.00,,,0.00,Wunderground v.1.15,2013-12-24 20:58:00,
2013-12-24 15:01:00,57.5,21.9,30.31,SW,217,4.0,5.0,25,0.00,,,0.00,Wunderground v.1.15,2013-12-24 21:01:00,
2013-12-24 15:03:00,57.6,22.0,30.30,SE,137,4.0,5.0,25,0.00,,,0.00,Wunderground v.1.15,2013-12-24 21:03:00,
2013-12-24 15:06:00,57.8,21.2,30.30,South,172,4.0,8.0,24,0.00,,,0.00,Wunderground v.1.15,2013-12-24 21:06:00,
2013-12-24 15:07:00,57.6,20.0,30.30,SSW,193,4.0,8.0,23,0.00,,,0.00,Wunderground v.1.15,2013-12-24 21:07:00,
2013-12-24 15:08:00,57.6,21.0,30.30,SE,145,4.0,8.0,24,0.00,,,0.00,Wunderground v.1.15,2013-12-24 21:08:00,
2013-12-24 15:13:00,57.6,22.0,30.30,SSE,147,5.0,7.0,25,0.00,,,0.00,Wunderground v.1.15,2013-12-24 21:13:00,
2013-12-24 15:14:00,57.6,22.0,30.30,SSW,192,5.0,7.0,25,0.00,,,0.00,Wunderground v.1.15,2013-12-24 21:14:00,
2013-12-24 15:21:00,57.3,20.8,30.29,SE,144,5.0,6.0,24,0.00,,,0.00,Wunderground v.1.15,2013-12-24 21:21:00,
2013-12-24 15:23:00,57.3,20.8,30.29,South,176,5.0,7.0,24,0.00,,,0.00,Wunderground v.1.15,2013-12-24 21:23:00,
2013-12-24 15:25:00,57.5,21.9,30.29,SE,133,5.0,7.0,25,0.00,,,0.00,Wunderground v.1.15,2013-12-24 21:25:00,
2013-12-24 15:27:00,57.6,22.0,30.29,SSE,157,5.0,7.0,25,0.00,,,0.00,Wunderground v.1.15,2013-12-24 21:27:00,
2013-12-24 15:28:00,57.6,22.0,30.29,South,174,5.0,7.0,25,0.00,,,0.00,Wunderground v.1.15,2013-12-24 21:28:00,
2013-12-24 15:32:00,57.6,21.0,30.29,SE,138,4.0,7.0,24,0.00,,,0.00,Wunderground v.1.15,2013-12-24 21:32:00,
2013-12-24 15:33:00,57.8,21.2,30.29,SSE,157,4.0,7.0,24,0.00,,,0.00,Wunderground v.1.15,2013-12-24 21:33:00,
2013-12-24 15:38:00,57.5,19.9,30.29,SSW,193,5.0,11.0,23,0.00,,,0.00,Wunderground v.1.15,2013-12-24 21:38:00,
2013-12-24 15:41:00,57.6,21.0,30.29,SE,144,4.0,8.0,24,0.00,,,0.00,Wunderground v.1.15,2013-12-24 21:41:00,
2013-12-24 15:42:00,57.5,19.9,30.29,SE,141,5.0,8.0,23,0.00,,,0.00,Wunderground v.1.15,2013-12-24 21:42:00,
2013-12-24 15:44:00,57.3,19.8,30.29,South,181,5.0,8.0,23,0.00,,,0.00,Wunderground v.1.15,2013-12-24 21:44:00,
2013-12-24 15:45:00,57.3,20.8,30.29,SE,145,4.0,8.0,24,0.00,,,0.00,Wunderground v.1.15,2013-12-24 21:45:00,
2013-12-24 15:46:00,57.3,19.8,30.29,SE,145,4.0,8.0,23,0.00,,,0.00,Wunderground v.1.15,2013-12-24 21:46:00,
2013-12-24 15:51:00,57.8,21.2,30.28,SSE,160,4.0,4.0,24,0.00,,,0.00,Wunderground v.1.15,2013-12-24 21:51:00,
2013-12-24 15:53:00,57.8,20.2,30.28,South,188,4.0,7.0,23,0.00,,,0.00,Wunderground v.1.15,2013-12-24 21:53:00,
2013-12-24 15:54:00,57.8,20.2,30.28,SSE,167,4.0,7.0,23,0.00,,,0.00,Wunderground v.1.15,2013-12-24 21:54:00,
2013-12-24 15:59:00,58.1,21.4,30.28,South,171,4.0,6.0,24,0.00,,,0.00,Wunderground v.1.15,2013-12-24 21:59:00,
2013-12-24 16:04:00,58.1,21.4,30.28,SSE,157,4.0,6.0,24,0.00,,,0.00,Wunderground v.1.15,2013-12-24 22:04:00,
2013-12-24 16:05:00,58.0,20.4,30.28,SE,143,4.0,6.0,23,0.00,,,0.00,Wunderground v.1.15,2013-12-24 22:05:00,
2013-12-24 16:06:00,57.8,21.2,30.28,SE,131,4.0,6.0,24,0.00,,,0.00,Wunderground v.1.15,2013-12-24 22:06:00,
2013-12-24 16:07:00,57.6,21.0,30.28,SE,137,4.0,6.0,24,0.00,,,0.00,Wunderground v.1.15,2013-12-24 22:07:00,
2013-12-24 16:12:00,57.5,20.9,30.28,SSE,154,4.0,4.0,24,0.00,,,0.00,Wunderground v.1.15,2013-12-24 22:12:00,
2013-12-24 16:13:00,57.5,21.9,30.28,SSE,167,5.0,5.0,25,0.00,,,0.00,Wunderground v.1.15,2013-12-24 22:13:00,
2013-12-24 16:14:00,57.5,20.9,30.28,South,185,5.0,5.0,24,0.00,,,0.00,Wunderground v.1.15,2013-12-24 22:14:00,
2013-12-24 16:15:00,57.5,21.9,30.28,SSE,162,4.0,5.0,25,0.00,,,0.00,Wunderground v.1.15,2013-12-24 22:15:00,
2013-12-24 16:16:00,57.6,22.0,30.28,ESE,121,4.0,8.0,25,0.00,,,0.00,Wunderground v.1.15,2013-12-24 22:16:00,
2013-12-24 16:22:00,57.2,21.6,30.27,SSW,196,5.0,10.0,25,0.00,,,0.00,Wunderground v.1.15,2013-12-24 22:22:00,
2013-12-24 16:23:00,57.2,21.6,30.27,South,178,5.0,10.0,25,0.00,,,0.00,Wunderground v.1.15,2013-12-24 22:23:00,
2013-12-24 16:26:00,57.2,21.6,30.27,SE,130,6.0,10.0,25,0.00,,,0.00,Wunderground v.1.15,2013-12-24 22:26:00,
2013-12-24 16:27:00,57.0,21.5,30.27,SE,134,6.0,10.0,25,0.00,,,0.00,Wunderground v.1.15,2013-12-24 22:27:00,
2013-12-24 16:28:00,57.0,21.5,30.27,SE,140,6.0,10.0,25,0.00,,,0.00,Wunderground v.1.15,2013-12-24 22:28:00,
2013-12-24 16:32:00,56.7,22.2,30.27,SSE,151,5.0,5.0,26,0.00,,,0.00,Wunderground v.1.15,2013-12-24 22:32:00,
2013-12-24 16:33:00,56.7,22.2,30.27,South,172,5.0,6.0,26,0.00,,,0.00,Wunderground v.1.15,2013-12-24 22:33:00,
2013-12-24 16:34:00,56.9,22.3,30.27,SSE,150,5.0,6.0,26,0.00,,,0.00,Wunderground v.1.15,2013-12-24 22:34:00,
2013-12-24 16:38:00,57.0,22.4,30.27,South,186,4.0,6.0,26,0.00,,,0.00,Wunderground v.1.15,2013-12-24 22:38:00,
2013-12-24 16:39:00,57.0,22.4,30.27,SSW,195,4.0,6.0,26,0.00,,,0.00,Wunderground v.1.15,2013-12-24 22:39:00,
2013-12-24 16:43:00,56.9,22.3,30.27,SSE,157,4.0,7.0,26,0.00,,,0.00,Wunderground v.1.15,2013-12-24 22:43:00,
2013-12-24 16:44:00,56.7,22.2,30.27,SSE,164,4.0,7.0,26,0.00,,,0.00,Wunderground v.1.15,2013-12-24 22:44:00,
2013-12-24 16:45:00,56.7,22.2,30.27,South,174,4.0,7.0,26,0.00,,,0.00,Wunderground v.1.15,2013-12-24 22:45:00,
2013-12-24 16:47:00,56.6,22.1,30.27,SE,140,5.0,10.0,26,0.00,,,0.00,Wunderground v.1.15,2013-12-24 22:47:00,
2013-12-24 16:48:00,56.5,22.9,30.27,SE,143,5.0,11.0,27,0.00,,,0.00,Wunderground v.1.15,2013-12-24 22:48:00,
2013-12-24 16:52:00,56.3,22.7,30.27,South,176,5.0,5.0,27,0.00,,,0.00,Wunderground v.1.15,2013-12-24 22:52:00,
2013-12-24 16:53:00,56.3,22.7,30.27,SSE,167,5.0,5.0,27,0.00,,,0.00,Wunderground v.1.15,2013-12-24 22:53:00,
2013-12-24 16:55:00,56.5,23.7,30.27,SSW,193,5.0,5.0,28,0.00,,,0.00,Wunderground v.1.15,2013-12-24 22:55:00,
2013-12-24 16:57:00,56.5,23.7,30.27,South,175,5.0,7.0,28,0.00,,,0.00,Wunderground v.1.15,2013-12-24 22:57:00,
2013-12-24 16:58:00,56.3,23.6,30.27,SSE,147,4.0,7.0,28,0.00,,,0.00,Wunderground v.1.15,2013-12-24 22:58:00,
2013-12-24 17:02:00,56.2,22.6,30.27,SSW,192,4.0,4.0,27,0.00,,,0.00,Wunderground v.1.15,2013-12-24 23:02:00,
2013-12-24 17:03:00,56.0,23.3,30.27,SSE,162,5.0,5.0,28,0.00,,,0.00,Wunderground v.1.15,2013-12-24 23:03:00,
2013-12-24 17:05:00,55.9,23.2,30.27,SSE,158,5.0,7.0,28,0.00,,,0.00,Wunderground v.1.15,2013-12-24 23:05:00,
2013-12-24 17:06:00,55.9,23.2,30.27,SSE,152,5.0,7.0,28,0.00,,,0.00,Wunderground v.1.15,2013-12-24 23:06:00,
2013-12-24 17:08:00,55.7,23.1,30.27,SSE,158,5.0,8.0,28,0.00,,,0.00,Wunderground v.1.15,2013-12-24 23:08:00,
2013-12-24 17:09:00,55.7,23.1,30.27,SSE,154,5.0,8.0,28,0.00,,,0.00,Wunderground v.1.15,2013-12-24 23:09:00,
2013-12-24 17:12:00,55.6,23.0,30.27,SE,141,5.0,5.0,28,0.00,,,0.00,Wunderground v.1.15,2013-12-24 23:12:00,
2013-12-24 17:13:00,55.6,23.0,30.27,South,176,5.0,7.0,28,0.00,,,0.00,Wunderground v.1.15,2013-12-24 23:13:00,
2013-12-24 17:14:00,55.6,23.0,30.27,SSW,196,4.0,7.0,28,0.00,,,0.00,Wunderground v.1.15,2013-12-24 23:14:00,
2013-12-24 17:15:00,55.4,22.8,30.27,South,175,4.0,7.0,28,0.00,,,0.00,Wunderground v.1.15,2013-12-24 23:15:00,
2013-12-24 17:18:00,55.3,22.7,30.27,SSE,162,4.0,8.0,28,0.00,,,0.00,Wunderground v.1.15,2013-12-24 23:18:00,
2013-12-24 17:21:00,55.1,22.5,30.27,SSE,154,3.0,3.0,28,0.00,,,0.00,Wunderground v.1.15,2013-12-24 23:21:00,
2013-12-24 17:23:00,55.1,22.5,30.27,SSE,152,4.0,4.0,28,0.00,,,0.00,Wunderground v.1.15,2013-12-24 23:23:00,
2013-12-24 17:26:00,54.8,22.3,30.27,South,169,3.0,6.0,28,0.00,,,0.00,Wunderground v.1.15,2013-12-24 23:26:00,
2013-12-24 17:27:00,54.8,23.1,30.27,SSE,158,3.0,6.0,29,0.00,,,0.00,Wunderground v.1.15,2013-12-24 23:27:00,
2013-12-24 17:28:00,54.7,23.0,30.27,SSE,148,3.0,6.0,29,0.00,,,0.00,Wunderground v.1.15,2013-12-24 23:28:00,
2013-12-24 17:32:00,54.4,23.6,30.27,SSE,152,2.0,4.0,30,0.00,,,0.00,Wunderground v.1.15,2013-12-24 23:32:00,
2013-12-24 17:33:00,54.4,23.6,30.27,SE,143,3.0,4.0,30,0.00,,,0.00,Wunderground v.1.15,2013-12-24 23:33:00,
2013-12-24 17:34:00,54.2,23.4,30.27,South,171,3.0,4.0,30,0.00,,,0.00,Wunderground v.1.15,2013-12-24 23:34:00,
2013-12-24 17:36:00,54.1,23.3,30.27,SE,136,3.0,4.0,30,0.00,,,0.00,Wunderground v.1.15,2013-12-24 23:36:00,
2013-12-24 17:38:00,53.9,23.1,30.27,SE,144,2.0,4.0,30,0.00,,,0.00,Wunderground v.1.15,2013-12-24 23:38:00,
2013-12-24 17:42:00,53.6,23.7,30.27,SE,136,2.0,2.0,31,0.00,,,0.00,Wunderground v.1.15,2013-12-24 23:42:00,
2013-12-24 17:43:00,53.5,23.6,30.27,SE,140,2.0,2.0,31,0.00,,,0.00,Wunderground v.1.15,2013-12-24 23:43:00,
2013-12-24 17:45:00,53.3,23.4,30.27,SE,143,2.0,2.0,31,0.00,,,0.00,Wunderground v.1.15,2013-12-24 23:45:00,
2013-12-24 17:47:00,53.2,23.3,30.27,SE,145,2.0,3.0,31,0.00,,,0.00,Wunderground v.1.15,2013-12-24 23:47:00,
2013-12-24 17:48:00,53.2,23.3,30.27,SE,145,2.0,3.0,31,0.00,,,0.00,Wunderground v.1.15,2013-12-24 23:48:00,
2013-12-24 17:53:00,52.9,23.0,30.27,SE,140,2.0,3.0,31,0.00,,,0.00,Wunderground v.1.15,2013-12-24 23:53:00,
2013-12-24 17:56:00,52.6,23.5,30.27,SE,140,2.0,3.0,32,0.00,,,0.00,Wunderground v.1.15,2013-12-24 23:56:00,
2013-12-24 17:58:00,52.5,23.5,30.27,SE,140,2.0,3.0,32,0.00,,,0.00,Wunderground v.1.15,2013-12-24 23:58:00,
2013-12-24 18:01:00,52.3,23.3,30.27,SE,141,2.0,2.0,32,0.00,,,0.00,Wunderground v.1.15,2013-12-25 00:01:00,
2013-12-24 18:03:00,52.2,23.2,30.27,SE,141,1.0,2.0,32,0.00,,,0.00,Wunderground v.1.15,2013-12-25 00:03:00,
2013-12-24 18:04:00,52.2,23.2,30.27,SSE,151,1.0,5.0,32,0.00,,,0.00,Wunderground v.1.15,2013-12-25 00:04:00,
2013-12-24 18:06:00,52.0,23.0,30.27,SSE,151,1.0,5.0,32,0.00,,,0.00,Wunderground v.1.15,2013-12-25 00:06:00,
2013-12-24 18:08:00,52.0,23.0,30.27,SSE,150,1.0,5.0,32,0.00,,,0.00,Wunderground v.1.15,2013-12-25 00:08:00,
2013-12-24 18:12:00,51.6,22.7,30.27,SSE,150,2.0,2.0,32,0.00,,,0.00,Wunderground v.1.15,2013-12-25 00:12:00,
2013-12-24 18:13:00,51.6,22.7,30.27,SSE,150,2.0,2.0,32,0.00,,,0.00,Wunderground v.1.15,2013-12-25 00:13:00,
2013-12-24 18:14:00,51.6,23.4,30.27,SSE,150,2.0,2.0,33,0.00,,,0.00,Wunderground v.1.15,2013-12-25 00:14:00,
2013-12-24 18:16:00,51.6,23.4,30.27,SSE,150,2.0,2.0,33,0.00,,,0.00,Wunderground v.1.15,2013-12-25 00:16:00,
2013-12-24 18:17:00,51.4,23.2,30.27,SSE,150,2.0,2.0,33,0.00,,,0.00,Wunderground v.1.15,2013-12-25 00:17:00,
2013-12-24 18:18:00,51.3,23.1,30.27,SSE,150,2.0,2.0,33,0.00,,,0.00,Wunderground v.1.15,2013-12-25 00:18:00,
2013-12-24 18:22:00,51.1,23.7,30.27,SSE,150,1.0,1.0,34,0.00,,,0.00,Wunderground v.1.15,2013-12-25 00:22:00,
2013-12-24 18:23:00,51.1,23.7,30.27,SSE,150,1.0,1.0,34,0.00,,,0.00,Wunderground v.1.15,2013-12-25 00:23:00,
2013-12-24 18:24:00,51.1,23.7,30.27,SSE,150,1.0,1.0,34,0.00,,,0.00,Wunderground v.1.15,2013-12-25 00:24:00,
2013-12-24 18:28:00,50.8,24.1,30.27,SSE,150,1.0,1.0,35,0.00,,,0.00,Wunderground v.1.15,2013-12-25 00:28:00,
2013-12-24 18:31:00,50.7,24.0,30.27,SSE,150,0.0,1.0,35,0.00,,,0.00,Wunderground v.1.15,2013-12-25 00:31:00,
2013-12-24 18:32:00,50.5,23.8,30.27,SSE,150,1.0,1.0,35,0.00,,,0.00,Wunderground v.1.15,2013-12-25 00:32:00,
2013-12-24 18:33:00,50.5,23.8,30.27,SSE,150,0.0,1.0,35,0.00,,,0.00,Wunderground v.1.15,2013-12-25 00:33:00,
2013-12-24 18:35:00,50.4,23.7,30.27,SSE,150,0.0,1.0,35,0.00,,,0.00,Wunderground v.1.15,2013-12-25 00:35:00,
2013-12-24 18:36:00,50.4,23.7,30.27,SSE,150,0.0,1.0,35,0.00,,,0.00,Wunderground v.1.15,2013-12-25 00:36:00,
2013-12-24 18:38:00,50.2,23.6,30.27,SSE,150,1.0,2.0,35,0.00,,,0.00,Wunderground v.1.15,2013-12-25 00:38:00,
2013-12-24 18:42:00,49.9,24.0,30.27,SSE,150,0.0,1.0,36,0.00,,,0.00,Wunderground v.1.15,2013-12-25 00:42:00,
2013-12-24 18:43:00,49.9,24.0,30.27,SSE,150,0.0,1.0,36,0.00,,,0.00,Wunderground v.1.15,2013-12-25 00:43:00,
2013-12-24 18:46:00,49.8,23.9,30.27,SSE,150,0.0,1.0,36,0.00,,,0.00,Wunderground v.1.15,2013-12-25 00:46:00,
2013-12-24 18:47:00,49.6,23.7,30.27,SSE,150,0.0,1.0,36,0.00,,,0.00,Wunderground v.1.15,2013-12-25 00:47:00,
2013-12-24 18:48:00,49.6,23.7,30.27,SSE,150,0.0,1.0,36,0.00,,,0.00,Wunderground v.1.15,2013-12-25 00:48:00,
2013-12-24 18:52:00,49.5,23.6,30.27,SSE,150,0.0,0.0,36,0.00,,,0.00,Wunderground v.1.15,2013-12-25 00:52:00,
2013-12-24 18:54:00,49.5,23.6,30.27,SSE,150,0.0,0.0,36,0.00,,,0.00,Wunderground v.1.15,2013-12-25 00:54:00,
2013-12-24 18:55:00,49.4,24.2,30.27,SSE,150,0.0,0.0,37,0.00,,,0.00,Wunderground v.1.15,2013-12-25 00:55:00,
2013-12-24 19:02:00,49.2,24.0,30.27,SSE,150,0.0,0.0,37,0.00,,,0.00,Wunderground v.1.15,2013-12-25 01:02:00,
2013-12-24 19:03:00,49.1,23.9,30.26,SSE,150,0.0,0.0,37,0.00,,,0.00,Wunderground v.1.15,2013-12-25 01:03:00,
2013-12-24 19:05:00,49.1,23.9,30.26,SSE,150,0.0,0.0,37,0.00,,,0.00,Wunderground v.1.15,2013-12-25 01:05:00,
2013-12-24 19:06:00,49.1,23.9,30.26,SSE,150,0.0,0.0,37,0.00,,,0.00,Wunderground v.1.15,2013-12-25 01:06:00,
2013-12-24 19:08:00,48.9,23.7,30.26,SSE,150,0.0,0.0,37,0.00,,,0.00,Wunderground v.1.15,2013-12-25 01:08:00,
2013-12-24 19:11:00,48.8,24.3,30.26,SSE,150,0.0,0.0,38,0.00,,,0.00,Wunderground v.1.15,2013-12-25 01:11:00,
2013-12-24 19:12:00,48.6,24.1,30.26,SSE,150,0.0,0.0,38,0.00,,,0.00,Wunderground v.1.15,2013-12-25 01:12:00,
2013-12-24 19:14:00,48.5,24.0,30.26,SSE,150,0.0,0.0,38,0.00,,,0.00,Wunderground v.1.15,2013-12-25 01:14:00,
2013-12-24 19:15:00,48.5,24.0,30.26,SSE,150,0.0,0.0,38,0.00,,,0.00,Wunderground v.1.15,2013-12-25 01:15:00,
2013-12-24 19:21:00,48.2,24.4,30.26,SSE,150,0.0,0.0,39,0.00,,,0.00,Wunderground v.1.15,2013-12-25 01:21:00,
2013-12-24 19:22:00,48.2,24.4,30.26,SSE,150,0.0,0.0,39,0.00,,,0.00,Wunderground v.1.15,2013-12-25 01:22:00,
2013-12-24 19:23:00,48.0,24.2,30.26,SSE,150,0.0,0.0,39,0.00,,,0.00,Wunderground v.1.15,2013-12-25 01:23:00,
2013-12-24 19:25:00,48.0,24.2,30.26,SSE,150,0.0,0.0,39,0.00,,,0.00,Wunderground v.1.15,2013-12-25 01:25:00,
2013-12-24 19:27:00,47.9,24.1,30.26,SSE,150,0.0,1.0,39,0.00,,,0.00,Wunderground v.1.15,2013-12-25 01:27:00,
2013-12-24 19:28:00,47.9,24.1,30.26,SSE,150,0.0,1.0,39,0.00,,,0.00,Wunderground v.1.15,2013-12-25 01:28:00,
2013-12-24 19:32:00,47.7,24.5,30.25,SSE,150,0.0,0.0,40,0.00,,,0.00,Wunderground v.1.15,2013-12-25 01:32:00,
2013-12-24 19:33:00,47.7,24.5,30.25,SSE,150,0.0,0.0,40,0.00,,,0.00,Wunderground v.1.15,2013-12-25 01:33:00,
2013-12-24 19:34:00,47.6,24.4,30.25,SSE,150,0.0,0.0,40,0.00,,,0.00,Wunderground v.1.15,2013-12-25 01:34:00,
2013-12-24 19:35:00,47.6,24.4,30.25,SSE,150,0.0,0.0,40,0.00,,,0.00,Wunderground v.1.15,2013-12-25 01:35:00,
2013-12-24 19:36:00,47.6,24.4,30.25,SSE,150,0.0,0.0,40,0.00,,,0.00,Wunderground v.1.15,2013-12-25 01:36:00,
2013-12-24 19:41:00,47.3,24.2,30.25,SSE,150,0.0,0.0,40,0.00,,,0.00,Wunderground v.1.15,2013-12-25 01:41:00,
2013-12-24 19:42:00,47.3,24.2,30.25,SSE,150,0.0,0.0,40,0.00,,,0.00,Wunderground v.1.15,2013-12-25 01:42:00,
2013-12-24 19:43:00,47.3,24.2,30.25,SSE,150,0.0,0.0,40,0.00,,,0.00,Wunderground v.1.15,2013-12-25 01:43:00,
2013-12-24 19:44:00,47.3,24.2,30.25,SSE,150,0.0,0.0,40,0.00,,,0.00,Wunderground v.1.15,2013-12-25 01:44:00,
2013-12-24 19:52:00,47.0,23.9,30.25,SSE,150,0.0,0.0,40,0.00,,,0.00,Wunderground v.1.15,2013-12-25 01:52:00,
2013-12-24 19:53:00,47.0,24.5,30.25,SSE,150,0.0,0.0,41,0.00,,,0.00,Wunderground v.1.15,2013-12-25 01:53:00,
2013-12-24 19:56:00,46.8,24.3,30.25,SSE,150,0.0,0.0,41,0.00,,,0.00,Wunderground v.1.15,2013-12-25 01:56:00,
2013-12-24 20:01:00,46.5,24.0,30.25,SSE,150,0.0,0.0,41,0.00,,,0.00,Wunderground v.1.15,2013-12-25 02:01:00,
2013-12-24 20:02:00,46.5,24.6,30.25,SSE,150,0.0,0.0,42,0.00,,,0.00,Wunderground v.1.15,2013-12-25 02:02:00,
2013-12-24 20:03:00,46.5,24.6,30.25,SSE,150,0.0,0.0,42,0.00,,,0.00,Wunderground v.1.15,2013-12-25 02:03:00,
2013-12-24 20:04:00,46.4,23.9,30.25,SSE,150,0.0,0.0,41,0.00,,,0.00,Wunderground v.1.15,2013-12-25 02:04:00,
2013-12-24 20:08:00,46.2,23.8,30.25,SSE,150,0.0,0.0,41,0.00,,,0.00,Wunderground v.1.15,2013-12-25 02:08:00,
2013-12-24 20:11:00,46.2,24.3,30.25,SSE,150,0.0,0.0,42,0.00,,,0.00,Wunderground v.1.15,2013-12-25 02:11:00,
2013-12-24 20:12:00,46.1,24.3,30.25,SSE,150,0.0,0.0,42,0.00,,,0.00,Wunderground v.1.15,2013-12-25 02:12:00,
2013-12-24 20:13:00,46.1,24.3,30.25,SSE,150,0.0,0.0,42,0.00,,,0.00,Wunderground v.1.15,2013-12-25 02:13:00,
2013-12-24 20:16:00,46.0,24.2,30.25,SSE,150,0.0,0.0,42,0.00,,,0.00,Wunderground v.1.15,2013-12-25 02:16:00,
2013-12-24 20:17:00,46.0,24.2,30.25,SSE,150,0.0,0.0,42,0.00,,,0.00,Wunderground v.1.15,2013-12-25 02:17:00,
2013-12-24 20:18:00,45.8,24.0,30.24,SSE,150,0.0,0.0,42,0.00,,,0.00,Wunderground v.1.15,2013-12-25 02:18:00,
2013-12-24 20:22:00,45.8,24.0,30.24,SSE,150,0.0,0.0,42,0.00,,,0.00,Wunderground v.1.15,2013-12-25 02:22:00,
2013-12-24 20:23:00,45.7,23.9,30.24,SSE,150,0.0,0.0,42,0.00,,,0.00,Wunderground v.1.15,2013-12-25 02:23:00,
2013-12-24 20:24:00,45.7,23.9,30.24,SSE,150,0.0,0.0,42,0.00,,,0.00,Wunderground v.1.15,2013-12-25 02:24:00,
2013-12-24 20:25:00,45.7,23.9,30.24,SSE,150,0.0,0.0,42,0.00,,,0.00,Wunderground v.1.15,2013-12-25 02:25:00,
2013-12-24 20:27:00,45.7,23.9,30.24,SSE,150,0.0,0.0,42,0.00,,,0.00,Wunderground v.1.15,2013-12-25 02:27:00,
2013-12-24 20:31:00,45.5,24.3,30.24,SSE,150,0.0,0.0,43,0.00,,,0.00,Wunderground v.1.15,2013-12-25 02:31:00,
2013-12-24 20:33:00,45.4,24.2,30.24,SSE,150,0.0,0.0,43,0.00,,,0.00,Wunderground v.1.15,2013-12-25 02:33:00,
2013-12-24 20:34:00,45.4,24.2,30.24,SSE,150,0.0,0.0,43,0.00,,,0.00,Wunderground v.1.15,2013-12-25 02:34:00,
2013-12-24 20:35:00,45.4,24.2,30.24,SSE,150,0.0,0.0,43,0.00,,,0.00,Wunderground v.1.15,2013-12-25 02:35:00,
2013-12-24 20:41:00,45.2,24.0,30.24,SSE,150,0.0,0.0,43,0.00,,,0.00,Wunderground v.1.15,2013-12-25 02:41:00,
2013-12-24 20:42:00,45.2,24.0,30.24,SSE,150,0.0,0.0,43,0.00,,,0.00,Wunderground v.1.15,2013-12-25 02:42:00,
2013-12-24 20:44:00,45.2,24.0,30.24,SSE,150,0.0,0.0,43,0.00,,,0.00,Wunderground v.1.15,2013-12-25 02:44:00,
2013-12-24 20:45:00,45.2,24.0,30.24,SSE,150,0.0,0.0,43,0.00,,,0.00,Wunderground v.1.15,2013-12-25 02:45:00,
2013-12-24 20:48:00,45.1,23.9,30.25,SSE,150,0.0,0.0,43,0.00,,,0.00,Wunderground v.1.15,2013-12-25 02:48:00,
2013-12-24 20:51:00,45.1,24.5,30.25,SSE,150,0.0,0.0,44,0.00,,,0.00,Wunderground v.1.15,2013-12-25 02:51:00,
2013-12-24 20:52:00,45.1,24.5,30.25,SSE,150,0.0,0.0,44,0.00,,,0.00,Wunderground v.1.15,2013-12-25 02:52:00,
2013-12-24 20:54:00,45.1,23.9,30.25,SSE,151,0.0,1.0,43,0.00,,,0.00,Wunderground v.1.15,2013-12-25 02:54:00,
2013-12-24 20:57:00,45.2,24.0,30.25,SSE,151,0.0,1.0,43,0.00,,,0.00,Wunderground v.1.15,2013-12-25 02:57:00,
2013-12-24 21:01:00,45.2,24.0,30.25,SSE,151,0.0,1.0,43,0.00,,,0.00,Wunderground v.1.15,2013-12-25 03:01:00,
2013-12-24 21:02:00,45.2,24.0,30.25,SSE,151,0.0,1.0,43,0.00,,,0.00,Wunderground v.1.15,2013-12-25 03:02:00,
2013-12-24 21:04:00,45.4,24.2,30.25,SSE,151,1.0,1.0,43,0.00,,,0.00,Wunderground v.1.15,2013-12-25 03:04:00,
2013-12-24 21:05:00,45.4,24.2,30.25,SSE,150,1.0,2.0,43,0.00,,,0.00,Wunderground v.1.15,2013-12-25 03:05:00,
2013-12-24 21:08:00,45.5,24.3,30.25,SSE,157,1.0,5.0,43,0.00,,,0.00,Wunderground v.1.15,2013-12-25 03:08:00,
2013-12-24 21:11:00,45.7,24.5,30.25,SSE,168,2.0,2.0,43,0.00,,,0.00,Wunderground v.1.15,2013-12-25 03:11:00,
2013-12-24 21:13:00,45.7,25.0,30.25,South,175,2.0,3.0,44,0.00,,,0.00,Wunderground v.1.15,2013-12-25 03:13:00,
2013-12-24 21:14:00,45.7,25.0,30.25,South,178,2.0,3.0,44,0.00,,,0.00,Wunderground v.1.15,2013-12-25 03:14:00,
2013-12-24 21:16:00,45.7,25.0,30.25,South,175,2.0,6.0,44,0.00,,,0.00,Wunderground v.1.15,2013-12-25 03:16:00,
2013-12-24 21:21:00,45.7,26.1,30.24,South,178,2.0,3.0,46,0.00,,,0.00,Wunderground v.1.15,2013-12-25 03:21:00,
2013-12-24 21:22:00,45.8,26.2,30.24,South,178,2.0,3.0,46,0.00,,,0.00,Wunderground v.1.15,2013-12-25 03:22:00,
2013-12-24 21:24:00,45.8,26.2,30.24,SSE,162,2.0,7.0,46,0.00,,,0.00,Wunderground v.1.15,2013-12-25 03:24:00,
2013-12-24 21:27:00,45.8,26.7,30.24,South,175,2.0,7.0,47,0.00,,,0.00,Wunderground v.1.15,2013-12-25 03:27:00,
2013-12-24 21:28:00,45.8,26.7,30.24,South,175,2.0,7.0,47,0.00,,,0.00,Wunderground v.1.15,2013-12-25 03:28:00,
2013-12-24 21:32:00,45.7,27.1,30.24,South,184,2.0,4.0,48,0.00,,,0.00,Wunderground v.1.15,2013-12-25 03:32:00,
2013-12-24 21:34:00,45.7,27.6,30.24,South,179,2.0,4.0,49,0.00,,,0.00,Wunderground v.1.15,2013-12-25 03:34:00,
2013-12-24 21:35:00,45.7,27.6,30.24,South,179,2.0,4.0,49,0.00,,,0.00,Wunderground v.1.15,2013-12-25 03:35:00,
2013-12-24 21:37:00,45.5,27.9,30.24,South,179,2.0,4.0,50,0.00,,,0.00,Wunderground v.1.15,2013-12-25 03:37:00,
2013-12-24 21:38:00,45.4,27.8,30.24,South,175,2.0,4.0,50,0.00,,,0.00,Wunderground v.1.15,2013-12-25 03:38:00,
2013-12-24 21:43:00,45.1,28.0,30.24,South,185,2.0,2.0,51,0.00,,,0.00,Wunderground v.1.15,2013-12-25 03:43:00,
2013-12-24 21:45:00,44.9,28.3,30.24,South,189,2.0,2.0,52,0.00,,,0.00,Wunderground v.1.15,2013-12-25 03:45:00,
2013-12-24 21:46:00,44.8,28.2,30.24,South,189,2.0,2.0,52,0.00,,,0.00,Wunderground v.1.15,2013-12-25 03:46:00,
2013-12-24 21:47:00,44.8,28.2,30.24,South,189,2.0,2.0,52,0.00,,,0.00,Wunderground v.1.15,2013-12-25 03:47:00,
2013-12-24 21:48:00,44.6,28.0,30.24,South,189,2.0,2.0,52,0.00,,,0.00,Wunderground v.1.15,2013-12-25 03:48:00,
2013-12-24 21:51:00,44.5,28.4,30.24,South,189,1.0,1.0,53,0.00,,,0.00,Wunderground v.1.15,2013-12-25 03:51:00,
2013-12-24 21:53:00,44.5,28.4,30.24,South,189,1.0,2.0,53,0.00,,,0.00,Wunderground v.1.15,2013-12-25 03:53:00,
2013-12-24 21:54:00,44.5,28.9,30.24,South,189,1.0,2.0,54,0.00,,,0.00,Wunderground v.1.15,2013-12-25 03:54:00,
2013-12-24 21:57:00,44.3,29.1,30.24,South,189,1.0,2.0,55,0.00,,,0.00,Wunderground v.1.15,2013-12-25 03:57:00,
2013-12-24 21:58:00,44.3,29.1,30.24,South,189,1.0,2.0,55,0.00,,,0.00,Wunderground v.1.15,2013-12-25 03:58:00,
2013-12-24 22:02:00,44.5,29.8,30.24,South,189,1.0,3.0,56,0.00,,,0.00,Wunderground v.1.15,2013-12-25 04:02:00,
2013-12-24 22:03:00,44.5,30.2,30.23,South,189,1.0,3.0,57,0.00,,,0.00,Wunderground v.1.15,2013-12-25 04:03:00,
2013-12-24 22:04:00,44.5,30.2,30.23,South,191,1.0,3.0,57,0.00,,,0.00,Wunderground v.1.15,2013-12-25 04:04:00,
2013-12-24 22:07:00,44.5,30.6,30.23,South,172,2.0,3.0,58,0.00,,,0.00,Wunderground v.1.15,2013-12-25 04:07:00,
2013-12-24 22:08:00,44.5,30.6,30.23,South,171,2.0,3.0,58,0.00,,,0.00,Wunderground v.1.15,2013-12-25 04:08:00,
2013-12-24 22:12:00,44.6,31.6,30.23,South,184,2.0,2.0,60,0.00,,,0.00,Wunderground v.1.15,2013-12-25 04:12:00,
2013-12-24 22:13:00,44.6,32.0,30.23,South,178,2.0,3.0,61,0.00,,,0.00,Wunderground v.1.15,2013-12-25 04:13:00,
2013-12-24 22:15:00,44.8,32.2,30.23,SSE,165,2.0,3.0,61,0.00,,,0.00,Wunderground v.1.15,2013-12-25 04:15:00,
2013-12-24 22:17:00,44.8,32.6,30.23,South,169,2.0,3.0,62,0.00,,,0.00,Wunderground v.1.15,2013-12-25 04:17:00,
2013-12-24 22:18:00,44.8,32.6,30.23,South,169,2.0,3.0,62,0.00,,,0.00,Wunderground v.1.15,2013-12-25 04:18:00,
2013-12-24 22:21:00,44.8,32.6,30.23,South,176,2.0,2.0,62,0.00,,,0.00,Wunderground v.1.15,2013-12-25 04:21:00,
2013-12-24 22:23:00,44.8,32.6,30.23,South,179,2.0,3.0,62,0.00,,,0.00,Wunderground v.1.15,2013-12-25 04:23:00,
2013-12-24 22:24:00,44.8,32.6,30.23,South,182,2.0,3.0,62,0.00,,,0.00,Wunderground v.1.15,2013-12-25 04:24:00,
2013-12-24 22:25:00,44.8,33.0,30.23,South,178,2.0,3.0,63,0.00,,,0.00,Wunderground v.1.15,2013-12-25 04:25:00,
2013-12-24 22:26:00,44.6,32.8,30.23,South,178,2.0,4.0,63,0.00,,,0.00,Wunderground v.1.15,2013-12-25 04:26:00,
2013-12-24 22:27:00,44.6,32.8,30.23,South,179,2.0,4.0,63,0.00,,,0.00,Wunderground v.1.15,2013-12-25 04:27:00,
2013-12-24 22:31:00,44.6,33.2,30.23,South,185,2.0,3.0,64,0.00,,,0.00,Wunderground v.1.15,2013-12-25 04:31:00,
2013-12-24 22:32:00,44.6,33.2,30.23,South,184,2.0,3.0,64,0.00,,,0.00,Wunderground v.1.15,2013-12-25 04:32:00,
2013-12-24 22:33:00,44.6,33.2,30.22,South,178,2.0,3.0,64,0.00,,,0.00,Wunderground v.1.15,2013-12-25 04:33:00,
2013-12-24 22:35:00,44.6,33.6,30.22,South,181,3.0,4.0,65,0.00,,,0.00,Wunderground v.1.15,2013-12-25 04:35:00,
2013-12-24 22:37:00,44.6,33.6,30.22,South,188,3.0,4.0,65,0.00,,,0.00,Wunderground v.1.15,2013-12-25 04:37:00,
2013-12-24 22:41:00,44.6,33.6,30.22,South,174,3.0,4.0,65,0.00,,,0.00,Wunderground v.1.15,2013-12-25 04:41:00,
2013-12-24 22:42:00,44.6,33.9,30.22,South,178,3.0,5.0,66,0.00,,,0.00,Wunderground v.1.15,2013-12-25 04:42:00,
2013-12-24 22:44:00,44.6,34.3,30.22,South,172,3.0,5.0,67,0.00,,,0.00,Wunderground v.1.15,2013-12-25 04:44:00,
2013-12-24 22:51:00,44.6,34.7,30.22,South,184,3.0,3.0,68,0.00,,,0.00,Wunderground v.1.15,2013-12-25 04:51:00,
2013-12-24 22:52:00,44.6,35.1,30.22,South,181,3.0,4.0,69,0.00,,,0.00,Wunderground v.1.15,2013-12-25 04:52:00,
2013-12-24 22:56:00,44.5,35.3,30.22,South,189,3.0,7.0,70,0.00,,,0.00,Wunderground v.1.15,2013-12-25 04:56:00,
2013-12-24 22:58:00,44.5,35.3,30.22,South,184,3.0,7.0,70,0.00,,,0.00,Wunderground v.1.15,2013-12-25 04:58:00,
2013-12-24 23:01:00,44.5,35.7,30.22,South,184,3.0,3.0,71,0.00,,,0.00,Wunderground v.1.15,2013-12-25 05:01:00,
2013-12-24 23:02:00,44.5,35.7,30.22,South,184,3.0,3.0,71,0.00,,,0.00,Wunderground v.1.15,2013-12-25 05:02:00,
2013-12-24 23:03:00,44.5,35.7,30.22,South,185,3.0,3.0,71,0.00,,,0.00,Wunderground v.1.15,2013-12-25 05:03:00,
2013-12-24 23:06:00,44.3,35.8,30.22,South,185,3.0,3.0,72,0.00,,,0.00,Wunderground v.1.15,2013-12-25 05:06:00,
2013-12-24 23:07:00,44.3,35.8,30.22,South,185,2.0,3.0,72,0.00,,,0.00,Wunderground v.1.15,2013-12-25 05:07:00,
2013-12-24 23:08:00,44.2,35.7,30.22,South,185,2.0,6.0,72,0.00,,,0.00,Wunderground v.1.15,2013-12-25 05:08:00,
2013-12-24 23:12:00,44.1,35.6,30.22,South,181,1.0,2.0,72,0.00,,,0.00,Wunderground v.1.15,2013-12-25 05:12:00,
2013-12-24 23:13:00,44.1,35.6,30.22,South,181,1.0,2.0,72,0.00,,,0.00,Wunderground v.1.15,2013-12-25 05:13:00,
2013-12-24 23:15:00,43.9,35.5,30.22,South,181,1.0,3.0,72,0.00,,,0.00,Wunderground v.1.15,2013-12-25 05:15:00,
2013-12-24 23:16:00,43.9,35.5,30.22,South,182,1.0,3.0,72,0.00,,,0.00,Wunderground v.1.15,2013-12-25 05:16:00,
2013-12-24 23:18:00,43.9,35.5,30.22,South,182,1.0,3.0,72,0.00,,,0.00,Wunderground v.1.15,2013-12-25 05:18:00,
2013-12-24 23:23:00,43.8,35.7,30.22,South,181,1.0,2.0,73,0.00,,,0.00,Wunderground v.1.15,2013-12-25 05:23:00,
2013-12-24 23:25:00,43.6,35.9,30.22,South,182,1.0,2.0,74,0.00,,,0.00,Wunderground v.1.15,2013-12-25 05:25:00,
2013-12-24 23:31:00,43.5,36.1,30.22,South,182,1.0,1.0,75,0.00,,,0.00,Wunderground v.1.15,2013-12-25 05:31:00,
2013-12-24 23:32:00,43.5,36.1,30.22,South,182,1.0,2.0,75,0.00,,,0.00,Wunderground v.1.15,2013-12-25 05:32:00,
2013-12-24 23:33:00,43.5,36.1,30.21,South,182,1.0,2.0,75,0.00,,,0.00,Wunderground v.1.15,2013-12-25 05:33:00,
2013-12-24 23:34:00,43.3,35.9,30.21,South,184,2.0,3.0,75,0.00,,,0.00,Wunderground v.1.15,2013-12-25 05:34:00,
2013-12-24 23:35:00,43.3,35.9,30.21,South,182,2.0,3.0,75,0.00,,,0.00,Wunderground v.1.15,2013-12-25 05:35:00,
2013-12-24 23:37:00,43.3,35.9,30.21,South,184,2.0,3.0,75,0.00,,,0.00,Wunderground v.1.15,2013-12-25 05:37:00,
2013-12-24 23:38:00,43.3,36.2,30.21,South,184,2.0,3.0,76,0.00,,,0.00,Wunderground v.1.15,2013-12-25 05:38:00,
2013-12-24 23:41:00,43.3,36.2,30.21,South,185,2.0,2.0,76,0.00,,,0.00,Wunderground v.1.15,2013-12-25 05:41:00,
2013-12-24 23:42:00,43.3,36.6,30.21,South,186,2.0,3.0,77,0.00,,,0.00,Wunderground v.1.15,2013-12-25 05:42:00,
2013-12-24 23:45:00,43.3,36.6,30.21,South,186,2.0,3.0,77,0.00,,,0.00,Wunderground v.1.15,2013-12-25 05:45:00,
2013-12-24 23:47:00,43.3,36.9,30.21,South,188,2.0,3.0,78,0.00,,,0.00,Wunderground v.1.15,2013-12-25 05:47:00,
2013-12-24 23:48:00,43.3,36.9,30.20,South,188,2.0,3.0,78,0.00,,,0.00,Wunderground v.1.15,2013-12-25 05:48:00,
2013-12-24 23:52:00,43.3,36.9,30.20,South,188,2.0,2.0,78,0.00,,,0.00,Wunderground v.1.15,2013-12-25 05:52:00,
2013-12-24 23:53:00,43.3,36.9,30.20,South,188,2.0,2.0,78,0.00,,,0.00,Wunderground v.1.15,2013-12-25 05:53:00,
2013-12-24 23:56:00,43.2,37.1,30.20,South,186,1.0,2.0,79,0.00,,,0.00,Wunderground v.1.15,2013-12-25 05:56:00,
2013-12-24 23:58:00,43.2,37.1,30.20,South,188,1.0,2.0,79,0.00,,,0.00,Wunderground v.1.15,2013-12-25 05:58:00,